<?xml version="1.0" encoding="UTF-8" standalone="no" ?>
<gpx xmlns="http://www.topografix.com/GPX/1/1" xmlns:xsi="http://www.w3.org/2001/XMLSchema-instance" xsi:schemaLocation="http://www.topografix.com/GPX/1/1 http://www.topografix.com/GPX/1/1/gpx.xsd" version="1.1" creator="VisuGPX - https://www.visugpx.com">
  <metadata>
    <name>OriginalEspigaouRiders- pilon du Roy</name>
    <desc><![CDATA[Deux spéciales uniquement car nous étions trempés !]]></desc>
  </metadata>
  <trk>
    <name><![CDATA[OER_Simiane_courte]]></name>
    <trkseg>
      <trkpt lat="43.42965" lon="5.4363">
        <ele>229.4117432</ele>
        <time>2012-05-18T06:32:53Z</time>
      </trkpt>
      <trkpt lat="43.42957" lon="5.43631">
        <ele>230.3730469</ele>
        <time>2012-05-18T06:33:00Z</time>
      </trkpt>
      <trkpt lat="43.42954" lon="5.4363">
        <ele>229.892334</ele>
        <time>2012-05-18T06:33:03Z</time>
      </trkpt>
      <trkpt lat="43.42948" lon="5.43635">
        <ele>228.9311523</ele>
        <time>2012-05-18T06:33:09Z</time>
      </trkpt>
      <trkpt lat="43.42943" lon="5.43635">
        <ele>229.4117432</ele>
        <time>2012-05-18T06:33:13Z</time>
      </trkpt>
      <trkpt lat="43.4293" lon="5.43633">
        <ele>228.9311523</ele>
        <time>2012-05-18T06:33:17Z</time>
      </trkpt>
      <trkpt lat="43.42922" lon="5.43625">
        <ele>228.9311523</ele>
        <time>2012-05-18T06:33:23Z</time>
      </trkpt>
      <trkpt lat="43.42907" lon="5.43612">
        <ele>229.4117432</ele>
        <time>2012-05-18T06:33:32Z</time>
      </trkpt>
      <trkpt lat="43.42903" lon="5.4359">
        <ele>235.6602783</ele>
        <time>2012-05-18T06:33:42Z</time>
      </trkpt>
      <trkpt lat="43.42903" lon="5.43558">
        <ele>241.4282227</ele>
        <time>2012-05-18T06:33:53Z</time>
      </trkpt>
      <trkpt lat="43.42904" lon="5.43523">
        <ele>247.1960449</ele>
        <time>2012-05-18T06:34:05Z</time>
      </trkpt>
      <trkpt lat="43.42903" lon="5.43513">
        <ele>248.1575928</ele>
        <time>2012-05-18T06:34:08Z</time>
      </trkpt>
      <trkpt lat="43.42913" lon="5.43489">
        <ele>253.4447021</ele>
        <time>2012-05-18T06:34:18Z</time>
      </trkpt>
      <trkpt lat="43.42908" lon="5.43451">
        <ele>252.9639893</ele>
        <time>2012-05-18T06:34:32Z</time>
      </trkpt>
      <trkpt lat="43.42907" lon="5.4343">
        <ele>252.9639893</ele>
        <time>2012-05-18T06:34:39Z</time>
      </trkpt>
      <trkpt lat="43.42906" lon="5.43416">
        <ele>253.925415</ele>
        <time>2012-05-18T06:34:44Z</time>
      </trkpt>
      <trkpt lat="43.42909" lon="5.43383">
        <ele>252.0028076</ele>
        <time>2012-05-18T06:34:54Z</time>
      </trkpt>
      <trkpt lat="43.42914" lon="5.43336">
        <ele>250.0802002</ele>
        <time>2012-05-18T06:35:07Z</time>
      </trkpt>
      <trkpt lat="43.4292" lon="5.43305">
        <ele>246.2348633</ele>
        <time>2012-05-18T06:35:18Z</time>
      </trkpt>
      <trkpt lat="43.42921" lon="5.43301">
        <ele>246.2348633</ele>
        <time>2012-05-18T06:35:52Z</time>
      </trkpt>
      <trkpt lat="43.42924" lon="5.43282">
        <ele>245.7541504</ele>
        <time>2012-05-18T06:35:56Z</time>
      </trkpt>
      <trkpt lat="43.42923" lon="5.43252">
        <ele>244.3122559</ele>
        <time>2012-05-18T06:36:00Z</time>
      </trkpt>
      <trkpt lat="43.42918" lon="5.43224">
        <ele>242.8702393</ele>
        <time>2012-05-18T06:36:03Z</time>
      </trkpt>
      <trkpt lat="43.42924" lon="5.43102">
        <ele>238.0635986</ele>
        <time>2012-05-18T06:36:15Z</time>
      </trkpt>
      <trkpt lat="43.42922" lon="5.43014">
        <ele>234.2183838</ele>
        <time>2012-05-18T06:36:25Z</time>
      </trkpt>
      <trkpt lat="43.42923" lon="5.42947">
        <ele>230.3730469</ele>
        <time>2012-05-18T06:36:32Z</time>
      </trkpt>
      <trkpt lat="43.42911" lon="5.42919">
        <ele>227.9697266</ele>
        <time>2012-05-18T06:36:36Z</time>
      </trkpt>
      <trkpt lat="43.42881" lon="5.42897">
        <ele>232.2957764</ele>
        <time>2012-05-18T06:36:47Z</time>
      </trkpt>
      <trkpt lat="43.42877" lon="5.42895">
        <ele>233.7376709</ele>
        <time>2012-05-18T06:36:49Z</time>
      </trkpt>
      <trkpt lat="43.42866" lon="5.42893">
        <ele>236.6217041</ele>
        <time>2012-05-18T06:36:54Z</time>
      </trkpt>
      <trkpt lat="43.42859" lon="5.42894">
        <ele>233.2570801</ele>
        <time>2012-05-18T06:36:56Z</time>
      </trkpt>
      <trkpt lat="43.42849" lon="5.42895">
        <ele>234.2183838</ele>
        <time>2012-05-18T06:37:00Z</time>
      </trkpt>
      <trkpt lat="43.42843" lon="5.42898">
        <ele>235.6602783</ele>
        <time>2012-05-18T06:37:03Z</time>
      </trkpt>
      <trkpt lat="43.4283" lon="5.42926">
        <ele>239.9862061</ele>
        <time>2012-05-18T06:37:14Z</time>
      </trkpt>
      <trkpt lat="43.42821" lon="5.42925">
        <ele>238.0635986</ele>
        <time>2012-05-18T06:37:21Z</time>
      </trkpt>
      <trkpt lat="43.42831" lon="5.42893">
        <ele>238.0635986</ele>
        <time>2012-05-18T06:37:33Z</time>
      </trkpt>
      <trkpt lat="43.42834" lon="5.42881">
        <ele>239.5054932</ele>
        <time>2012-05-18T06:37:38Z</time>
      </trkpt>
      <trkpt lat="43.42838" lon="5.42872">
        <ele>241.4282227</ele>
        <time>2012-05-18T06:37:42Z</time>
      </trkpt>
      <trkpt lat="43.42845" lon="5.42858">
        <ele>243.3508301</ele>
        <time>2012-05-18T06:37:49Z</time>
      </trkpt>
      <trkpt lat="43.42846" lon="5.42848">
        <ele>244.7928467</ele>
        <time>2012-05-18T06:37:53Z</time>
      </trkpt>
      <trkpt lat="43.42855" lon="5.42832">
        <ele>246.2348633</ele>
        <time>2012-05-18T06:38:00Z</time>
      </trkpt>
      <trkpt lat="43.42854" lon="5.42823">
        <ele>246.2348633</ele>
        <time>2012-05-18T06:38:03Z</time>
      </trkpt>
      <trkpt lat="43.42863" lon="5.42804">
        <ele>244.3122559</ele>
        <time>2012-05-18T06:38:11Z</time>
      </trkpt>
      <trkpt lat="43.42863" lon="5.42789">
        <ele>244.3122559</ele>
        <time>2012-05-18T06:38:16Z</time>
      </trkpt>
      <trkpt lat="43.42856" lon="5.42757">
        <ele>244.7928467</ele>
        <time>2012-05-18T06:38:28Z</time>
      </trkpt>
      <trkpt lat="43.42855" lon="5.42739">
        <ele>241.4282227</ele>
        <time>2012-05-18T06:38:34Z</time>
      </trkpt>
      <trkpt lat="43.42855" lon="5.42729">
        <ele>241.9089355</ele>
        <time>2012-05-18T06:38:38Z</time>
      </trkpt>
      <trkpt lat="43.42859" lon="5.42699">
        <ele>241.9089355</ele>
        <time>2012-05-18T06:38:50Z</time>
      </trkpt>
      <trkpt lat="43.42853" lon="5.42651">
        <ele>241.4282227</ele>
        <time>2012-05-18T06:39:02Z</time>
      </trkpt>
      <trkpt lat="43.42851" lon="5.42617">
        <ele>239.5054932</ele>
        <time>2012-05-18T06:39:07Z</time>
      </trkpt>
      <trkpt lat="43.42843" lon="5.42565">
        <ele>234.6990967</ele>
        <time>2012-05-18T06:39:15Z</time>
      </trkpt>
      <trkpt lat="43.42844" lon="5.42558">
        <ele>232.2957764</ele>
        <time>2012-05-18T06:39:24Z</time>
      </trkpt>
      <trkpt lat="43.42844" lon="5.42556">
        <ele>232.7764893</ele>
        <time>2012-05-18T06:39:30Z</time>
      </trkpt>
      <trkpt lat="43.4284" lon="5.42551">
        <ele>232.7764893</ele>
        <time>2012-05-18T06:39:33Z</time>
      </trkpt>
      <trkpt lat="43.42833" lon="5.42531">
        <ele>231.8149414</ele>
        <time>2012-05-18T06:39:42Z</time>
      </trkpt>
      <trkpt lat="43.42817" lon="5.42508">
        <ele>230.8537598</ele>
        <time>2012-05-18T06:39:51Z</time>
      </trkpt>
      <trkpt lat="43.42816" lon="5.42503">
        <ele>230.8537598</ele>
        <time>2012-05-18T06:39:53Z</time>
      </trkpt>
      <trkpt lat="43.42808" lon="5.42467">
        <ele>229.892334</ele>
        <time>2012-05-18T06:40:04Z</time>
      </trkpt>
      <trkpt lat="43.42805" lon="5.42454">
        <ele>227.9697266</ele>
        <time>2012-05-18T06:40:12Z</time>
      </trkpt>
      <trkpt lat="43.42808" lon="5.42438">
        <ele>226.527832</ele>
        <time>2012-05-18T06:40:19Z</time>
      </trkpt>
      <trkpt lat="43.42832" lon="5.42476">
        <ele>228.9311523</ele>
        <time>2012-05-18T06:40:31Z</time>
      </trkpt>
      <trkpt lat="43.42834" lon="5.4248">
        <ele>229.4117432</ele>
        <time>2012-05-18T06:40:32Z</time>
      </trkpt>
      <trkpt lat="43.42854" lon="5.42514">
        <ele>232.2957764</ele>
        <time>2012-05-18T06:40:40Z</time>
      </trkpt>
      <trkpt lat="43.42852" lon="5.42528">
        <ele>234.2183838</ele>
        <time>2012-05-18T06:40:44Z</time>
      </trkpt>
      <trkpt lat="43.42847" lon="5.42573">
        <ele>237.1022949</ele>
        <time>2012-05-18T06:40:56Z</time>
      </trkpt>
      <trkpt lat="43.4285" lon="5.42608">
        <ele>239.0249023</ele>
        <time>2012-05-18T06:41:09Z</time>
      </trkpt>
      <trkpt lat="43.42851" lon="5.42638">
        <ele>240.9476318</ele>
        <time>2012-05-18T06:41:22Z</time>
      </trkpt>
      <trkpt lat="43.42855" lon="5.42668">
        <ele>243.3508301</ele>
        <time>2012-05-18T06:41:32Z</time>
      </trkpt>
      <trkpt lat="43.42861" lon="5.42694">
        <ele>247.1960449</ele>
        <time>2012-05-18T06:41:41Z</time>
      </trkpt>
      <trkpt lat="43.42857" lon="5.42699">
        <ele>249.5994873</ele>
        <time>2012-05-18T06:41:44Z</time>
      </trkpt>
      <trkpt lat="43.4285" lon="5.42694">
        <ele>249.5994873</ele>
        <time>2012-05-18T06:41:48Z</time>
      </trkpt>
      <trkpt lat="43.42847" lon="5.42691">
        <ele>248.1575928</ele>
        <time>2012-05-18T06:41:50Z</time>
      </trkpt>
      <trkpt lat="43.4283" lon="5.42651">
        <ele>244.3122559</ele>
        <time>2012-05-18T06:42:04Z</time>
      </trkpt>
      <trkpt lat="43.42813" lon="5.42615">
        <ele>239.0249023</ele>
        <time>2012-05-18T06:42:16Z</time>
      </trkpt>
      <trkpt lat="43.42791" lon="5.42603">
        <ele>239.5054932</ele>
        <time>2012-05-18T06:42:28Z</time>
      </trkpt>
      <trkpt lat="43.42766" lon="5.42579">
        <ele>242.8702393</ele>
        <time>2012-05-18T06:42:42Z</time>
      </trkpt>
      <trkpt lat="43.42753" lon="5.42563">
        <ele>243.831543</ele>
        <time>2012-05-18T06:42:49Z</time>
      </trkpt>
      <trkpt lat="43.42747" lon="5.42557">
        <ele>245.7541504</ele>
        <time>2012-05-18T06:42:54Z</time>
      </trkpt>
      <trkpt lat="43.42744" lon="5.42551">
        <ele>246.7154541</ele>
        <time>2012-05-18T06:42:58Z</time>
      </trkpt>
      <trkpt lat="43.42732" lon="5.42516">
        <ele>243.831543</ele>
        <time>2012-05-18T06:43:09Z</time>
      </trkpt>
      <trkpt lat="43.42733" lon="5.42516">
        <ele>243.3508301</ele>
        <time>2012-05-18T06:43:10Z</time>
      </trkpt>
      <trkpt lat="43.42734" lon="5.42514">
        <ele>242.3896484</ele>
        <time>2012-05-18T06:43:13Z</time>
      </trkpt>
      <trkpt lat="43.42719" lon="5.42474">
        <ele>236.6217041</ele>
        <time>2012-05-18T06:43:22Z</time>
      </trkpt>
      <trkpt lat="43.42706" lon="5.42462">
        <ele>240.467041</ele>
        <time>2012-05-18T06:43:25Z</time>
      </trkpt>
      <trkpt lat="43.42705" lon="5.42451">
        <ele>237.1022949</ele>
        <time>2012-05-18T06:43:32Z</time>
      </trkpt>
      <trkpt lat="43.42707" lon="5.42441">
        <ele>235.1796875</ele>
        <time>2012-05-18T06:43:44Z</time>
      </trkpt>
      <trkpt lat="43.42715" lon="5.42426">
        <ele>234.2183838</ele>
        <time>2012-05-18T06:43:50Z</time>
      </trkpt>
      <trkpt lat="43.42705" lon="5.42417">
        <ele>231.8149414</ele>
        <time>2012-05-18T06:43:59Z</time>
      </trkpt>
      <trkpt lat="43.42697" lon="5.42391">
        <ele>231.3343506</ele>
        <time>2012-05-18T06:44:07Z</time>
      </trkpt>
      <trkpt lat="43.42701" lon="5.42365">
        <ele>230.3730469</ele>
        <time>2012-05-18T06:44:13Z</time>
      </trkpt>
      <trkpt lat="43.42716" lon="5.42336">
        <ele>228.9311523</ele>
        <time>2012-05-18T06:44:19Z</time>
      </trkpt>
      <trkpt lat="43.42724" lon="5.42289">
        <ele>227.9697266</ele>
        <time>2012-05-18T06:44:28Z</time>
      </trkpt>
      <trkpt lat="43.42727" lon="5.42285">
        <ele>227.4891357</ele>
        <time>2012-05-18T06:44:39Z</time>
      </trkpt>
      <trkpt lat="43.42721" lon="5.42273">
        <ele>226.527832</ele>
        <time>2012-05-18T06:45:00Z</time>
      </trkpt>
      <trkpt lat="43.42723" lon="5.42256">
        <ele>225.5665283</ele>
        <time>2012-05-18T06:45:16Z</time>
      </trkpt>
      <trkpt lat="43.42709" lon="5.42243">
        <ele>228.9311523</ele>
        <time>2012-05-18T06:46:40Z</time>
      </trkpt>
      <trkpt lat="43.42691" lon="5.42197">
        <ele>228.4504395</ele>
        <time>2012-05-18T06:47:00Z</time>
      </trkpt>
      <trkpt lat="43.42695" lon="5.42185">
        <ele>227.9697266</ele>
        <time>2012-05-18T06:47:06Z</time>
      </trkpt>
      <trkpt lat="43.42691" lon="5.42168">
        <ele>226.527832</ele>
        <time>2012-05-18T06:47:11Z</time>
      </trkpt>
      <trkpt lat="43.4269" lon="5.42159">
        <ele>226.0471191</ele>
        <time>2012-05-18T06:47:13Z</time>
      </trkpt>
      <trkpt lat="43.4269" lon="5.42152">
        <ele>225.5665283</ele>
        <time>2012-05-18T06:47:15Z</time>
      </trkpt>
      <trkpt lat="43.42687" lon="5.4214">
        <ele>225.0859375</ele>
        <time>2012-05-18T06:47:18Z</time>
      </trkpt>
      <trkpt lat="43.42682" lon="5.42103">
        <ele>223.163208</ele>
        <time>2012-05-18T06:47:30Z</time>
      </trkpt>
      <trkpt lat="43.42668" lon="5.4208">
        <ele>221.2406006</ele>
        <time>2012-05-18T06:47:39Z</time>
      </trkpt>
      <trkpt lat="43.42655" lon="5.4205">
        <ele>221.2406006</ele>
        <time>2012-05-18T06:47:49Z</time>
      </trkpt>
      <trkpt lat="43.4265" lon="5.42046">
        <ele>220.7598877</ele>
        <time>2012-05-18T06:47:51Z</time>
      </trkpt>
      <trkpt lat="43.42628" lon="5.42043">
        <ele>221.2406006</ele>
        <time>2012-05-18T06:48:00Z</time>
      </trkpt>
      <trkpt lat="43.42604" lon="5.42046">
        <ele>222.2017822</ele>
        <time>2012-05-18T06:48:11Z</time>
      </trkpt>
      <trkpt lat="43.42599" lon="5.42045">
        <ele>222.6824951</ele>
        <time>2012-05-18T06:48:13Z</time>
      </trkpt>
      <trkpt lat="43.42581" lon="5.4202">
        <ele>221.2406006</ele>
        <time>2012-05-18T06:48:17Z</time>
      </trkpt>
      <trkpt lat="43.42562" lon="5.41971">
        <ele>223.6437988</ele>
        <time>2012-05-18T06:48:31Z</time>
      </trkpt>
      <trkpt lat="43.42553" lon="5.41967">
        <ele>224.1245117</ele>
        <time>2012-05-18T06:48:33Z</time>
      </trkpt>
      <trkpt lat="43.42518" lon="5.41946">
        <ele>224.6052246</ele>
        <time>2012-05-18T06:48:48Z</time>
      </trkpt>
      <trkpt lat="43.42512" lon="5.41956">
        <ele>226.0471191</ele>
        <time>2012-05-18T06:49:01Z</time>
      </trkpt>
      <trkpt lat="43.42502" lon="5.41974">
        <ele>226.527832</ele>
        <time>2012-05-18T06:49:09Z</time>
      </trkpt>
      <trkpt lat="43.425" lon="5.41987">
        <ele>227.0085449</ele>
        <time>2012-05-18T06:49:15Z</time>
      </trkpt>
      <trkpt lat="43.42471" lon="5.41997">
        <ele>228.4504395</ele>
        <time>2012-05-18T06:49:25Z</time>
      </trkpt>
      <trkpt lat="43.4247" lon="5.42001">
        <ele>228.4504395</ele>
        <time>2012-05-18T06:49:27Z</time>
      </trkpt>
      <trkpt lat="43.42452" lon="5.4205">
        <ele>230.3730469</ele>
        <time>2012-05-18T06:49:45Z</time>
      </trkpt>
      <trkpt lat="43.42448" lon="5.4209">
        <ele>231.8149414</ele>
        <time>2012-05-18T06:49:57Z</time>
      </trkpt>
      <trkpt lat="43.42451" lon="5.42106">
        <ele>232.7764893</ele>
        <time>2012-05-18T06:50:03Z</time>
      </trkpt>
      <trkpt lat="43.4245" lon="5.42135">
        <ele>235.6602783</ele>
        <time>2012-05-18T06:50:16Z</time>
      </trkpt>
      <trkpt lat="43.42443" lon="5.42156">
        <ele>236.6217041</ele>
        <time>2012-05-18T06:50:21Z</time>
      </trkpt>
      <trkpt lat="43.42437" lon="5.42162">
        <ele>237.1022949</ele>
        <time>2012-05-18T06:50:25Z</time>
      </trkpt>
      <trkpt lat="43.42427" lon="5.42171">
        <ele>238.5443115</ele>
        <time>2012-05-18T06:50:30Z</time>
      </trkpt>
      <trkpt lat="43.42403" lon="5.42184">
        <ele>239.5054932</ele>
        <time>2012-05-18T06:50:40Z</time>
      </trkpt>
      <trkpt lat="43.42392" lon="5.422">
        <ele>240.9476318</ele>
        <time>2012-05-18T06:50:46Z</time>
      </trkpt>
      <trkpt lat="43.42385" lon="5.42209">
        <ele>240.9476318</ele>
        <time>2012-05-18T06:50:50Z</time>
      </trkpt>
      <trkpt lat="43.42379" lon="5.42219">
        <ele>241.4282227</ele>
        <time>2012-05-18T06:50:53Z</time>
      </trkpt>
      <trkpt lat="43.42344" lon="5.42246">
        <ele>242.3896484</ele>
        <time>2012-05-18T06:51:06Z</time>
      </trkpt>
      <trkpt lat="43.42305" lon="5.4226">
        <ele>244.7928467</ele>
        <time>2012-05-18T06:51:20Z</time>
      </trkpt>
      <trkpt lat="43.42299" lon="5.42258">
        <ele>244.7928467</ele>
        <time>2012-05-18T06:51:22Z</time>
      </trkpt>
      <trkpt lat="43.42275" lon="5.4229">
        <ele>246.2348633</ele>
        <time>2012-05-18T06:51:35Z</time>
      </trkpt>
      <trkpt lat="43.42261" lon="5.42323">
        <ele>247.1960449</ele>
        <time>2012-05-18T06:51:45Z</time>
      </trkpt>
      <trkpt lat="43.42254" lon="5.42336">
        <ele>248.1575928</ele>
        <time>2012-05-18T06:51:49Z</time>
      </trkpt>
      <trkpt lat="43.42249" lon="5.42347">
        <ele>248.1575928</ele>
        <time>2012-05-18T06:51:53Z</time>
      </trkpt>
      <trkpt lat="43.42226" lon="5.42374">
        <ele>249.1187744</ele>
        <time>2012-05-18T06:52:02Z</time>
      </trkpt>
      <trkpt lat="43.42203" lon="5.42406">
        <ele>250.560791</ele>
        <time>2012-05-18T06:52:14Z</time>
      </trkpt>
      <trkpt lat="43.42172" lon="5.42438">
        <ele>253.4447021</ele>
        <time>2012-05-18T06:52:28Z</time>
      </trkpt>
      <trkpt lat="43.42159" lon="5.42449">
        <ele>254.4060059</ele>
        <time>2012-05-18T06:52:33Z</time>
      </trkpt>
      <trkpt lat="43.42114" lon="5.42452">
        <ele>258.2513428</ele>
        <time>2012-05-18T06:52:47Z</time>
      </trkpt>
      <trkpt lat="43.42109" lon="5.42452">
        <ele>258.7319336</ele>
        <time>2012-05-18T06:52:49Z</time>
      </trkpt>
      <trkpt lat="43.42073" lon="5.42428">
        <ele>261.6159668</ele>
        <time>2012-05-18T06:53:01Z</time>
      </trkpt>
      <trkpt lat="43.42045" lon="5.42412">
        <ele>263.5385742</ele>
        <time>2012-05-18T06:53:11Z</time>
      </trkpt>
      <trkpt lat="43.42035" lon="5.42419">
        <ele>264.4998779</ele>
        <time>2012-05-18T06:53:14Z</time>
      </trkpt>
      <trkpt lat="43.42027" lon="5.42461">
        <ele>267.3839111</ele>
        <time>2012-05-18T06:53:26Z</time>
      </trkpt>
      <trkpt lat="43.41999" lon="5.42486">
        <ele>268.8258057</ele>
        <time>2012-05-18T06:53:39Z</time>
      </trkpt>
      <trkpt lat="43.4199" lon="5.4249">
        <ele>269.3065186</ele>
        <time>2012-05-18T06:53:44Z</time>
      </trkpt>
      <trkpt lat="43.41984" lon="5.42486">
        <ele>269.7871094</ele>
        <time>2012-05-18T06:53:47Z</time>
      </trkpt>
      <trkpt lat="43.41973" lon="5.4248">
        <ele>270.2677002</ele>
        <time>2012-05-18T06:53:52Z</time>
      </trkpt>
      <trkpt lat="43.41956" lon="5.42494">
        <ele>271.7097168</ele>
        <time>2012-05-18T06:54:00Z</time>
      </trkpt>
      <trkpt lat="43.41936" lon="5.42531">
        <ele>275.0744629</ele>
        <time>2012-05-18T06:54:14Z</time>
      </trkpt>
      <trkpt lat="43.41928" lon="5.42566">
        <ele>277.958252</ele>
        <time>2012-05-18T06:54:26Z</time>
      </trkpt>
      <trkpt lat="43.41926" lon="5.42568">
        <ele>277.958252</ele>
        <time>2012-05-18T06:54:27Z</time>
      </trkpt>
      <trkpt lat="43.41903" lon="5.42575">
        <ele>279.4002686</ele>
        <time>2012-05-18T06:54:38Z</time>
      </trkpt>
      <trkpt lat="43.41891" lon="5.42574">
        <ele>279.8808594</ele>
        <time>2012-05-18T06:54:43Z</time>
      </trkpt>
      <trkpt lat="43.41876" lon="5.42573">
        <ele>280.3616943</ele>
        <time>2012-05-18T06:54:50Z</time>
      </trkpt>
      <trkpt lat="43.41857" lon="5.42595">
        <ele>280.8424072</ele>
        <time>2012-05-18T06:55:02Z</time>
      </trkpt>
      <trkpt lat="43.41849" lon="5.42605">
        <ele>281.8035889</ele>
        <time>2012-05-18T06:55:07Z</time>
      </trkpt>
      <trkpt lat="43.41832" lon="5.42617">
        <ele>282.7650146</ele>
        <time>2012-05-18T06:55:13Z</time>
      </trkpt>
      <trkpt lat="43.41821" lon="5.42633">
        <ele>284.6876221</ele>
        <time>2012-05-18T06:55:20Z</time>
      </trkpt>
      <trkpt lat="43.41801" lon="5.42639">
        <ele>285.1682129</ele>
        <time>2012-05-18T06:55:32Z</time>
      </trkpt>
      <trkpt lat="43.41786" lon="5.42642">
        <ele>285.6488037</ele>
        <time>2012-05-18T06:55:39Z</time>
      </trkpt>
      <trkpt lat="43.41782" lon="5.42642">
        <ele>285.6488037</ele>
        <time>2012-05-18T06:55:41Z</time>
      </trkpt>
      <trkpt lat="43.41776" lon="5.42643">
        <ele>285.6488037</ele>
        <time>2012-05-18T06:55:44Z</time>
      </trkpt>
      <trkpt lat="43.41771" lon="5.42641">
        <ele>285.6488037</ele>
        <time>2012-05-18T06:55:47Z</time>
      </trkpt>
      <trkpt lat="43.41735" lon="5.4262">
        <ele>289.0135498</ele>
        <time>2012-05-18T06:56:03Z</time>
      </trkpt>
      <trkpt lat="43.41729" lon="5.42618">
        <ele>289.4941406</ele>
        <time>2012-05-18T06:56:06Z</time>
      </trkpt>
      <trkpt lat="43.41704" lon="5.42608">
        <ele>292.3781738</ele>
        <time>2012-05-18T06:56:19Z</time>
      </trkpt>
      <trkpt lat="43.41693" lon="5.42612">
        <ele>293.3393555</ele>
        <time>2012-05-18T06:56:24Z</time>
      </trkpt>
      <trkpt lat="43.41689" lon="5.42617">
        <ele>294.3007812</ele>
        <time>2012-05-18T06:56:26Z</time>
      </trkpt>
      <trkpt lat="43.41685" lon="5.4262">
        <ele>294.3007812</ele>
        <time>2012-05-18T06:56:28Z</time>
      </trkpt>
      <trkpt lat="43.41677" lon="5.42662">
        <ele>295.2619629</ele>
        <time>2012-05-18T06:56:42Z</time>
      </trkpt>
      <trkpt lat="43.41671" lon="5.42682">
        <ele>295.7426758</ele>
        <time>2012-05-18T06:56:48Z</time>
      </trkpt>
      <trkpt lat="43.41656" lon="5.42695">
        <ele>296.7041016</ele>
        <time>2012-05-18T06:56:55Z</time>
      </trkpt>
      <trkpt lat="43.41651" lon="5.42697">
        <ele>297.6654053</ele>
        <time>2012-05-18T06:56:58Z</time>
      </trkpt>
      <trkpt lat="43.41646" lon="5.42694">
        <ele>297.6654053</ele>
        <time>2012-05-18T06:57:01Z</time>
      </trkpt>
      <trkpt lat="43.41617" lon="5.42687">
        <ele>299.5880127</ele>
        <time>2012-05-18T06:57:14Z</time>
      </trkpt>
      <trkpt lat="43.41584" lon="5.42683">
        <ele>301.991333</ele>
        <time>2012-05-18T06:57:27Z</time>
      </trkpt>
      <trkpt lat="43.41557" lon="5.42677">
        <ele>305.355957</ele>
        <time>2012-05-18T06:57:38Z</time>
      </trkpt>
      <trkpt lat="43.41545" lon="5.42688">
        <ele>309.6818848</ele>
        <time>2012-05-18T06:57:43Z</time>
      </trkpt>
      <trkpt lat="43.41535" lon="5.42708">
        <ele>307.7592773</ele>
        <time>2012-05-18T06:57:49Z</time>
      </trkpt>
      <trkpt lat="43.41532" lon="5.42718">
        <ele>308.2398682</ele>
        <time>2012-05-18T06:57:52Z</time>
      </trkpt>
      <trkpt lat="43.41523" lon="5.42762">
        <ele>308.720459</ele>
        <time>2012-05-18T06:58:02Z</time>
      </trkpt>
      <trkpt lat="43.41518" lon="5.42778">
        <ele>309.2011719</ele>
        <time>2012-05-18T06:58:06Z</time>
      </trkpt>
      <trkpt lat="43.41518" lon="5.42806">
        <ele>308.720459</ele>
        <time>2012-05-18T06:58:13Z</time>
      </trkpt>
      <trkpt lat="43.41511" lon="5.4286">
        <ele>305.8366699</ele>
        <time>2012-05-18T06:58:26Z</time>
      </trkpt>
      <trkpt lat="43.41503" lon="5.42923">
        <ele>307.7592773</ele>
        <time>2012-05-18T06:58:40Z</time>
      </trkpt>
      <trkpt lat="43.41504" lon="5.42959">
        <ele>307.7592773</ele>
        <time>2012-05-18T06:58:48Z</time>
      </trkpt>
      <trkpt lat="43.41489" lon="5.4297">
        <ele>308.2398682</ele>
        <time>2012-05-18T06:58:54Z</time>
      </trkpt>
      <trkpt lat="43.41466" lon="5.42974">
        <ele>307.2785645</ele>
        <time>2012-05-18T06:59:01Z</time>
      </trkpt>
      <trkpt lat="43.41461" lon="5.42985">
        <ele>308.2398682</ele>
        <time>2012-05-18T06:59:05Z</time>
      </trkpt>
      <trkpt lat="43.41454" lon="5.4298">
        <ele>307.7592773</ele>
        <time>2012-05-18T06:59:11Z</time>
      </trkpt>
      <trkpt lat="43.4146" lon="5.42935">
        <ele>307.2785645</ele>
        <time>2012-05-18T06:59:23Z</time>
      </trkpt>
      <trkpt lat="43.41469" lon="5.42882">
        <ele>306.3172607</ele>
        <time>2012-05-18T06:59:37Z</time>
      </trkpt>
      <trkpt lat="43.41473" lon="5.42876">
        <ele>307.2785645</ele>
        <time>2012-05-18T06:59:39Z</time>
      </trkpt>
      <trkpt lat="43.41468" lon="5.42864">
        <ele>307.7592773</ele>
        <time>2012-05-18T06:59:43Z</time>
      </trkpt>
      <trkpt lat="43.41463" lon="5.42828">
        <ele>307.2785645</ele>
        <time>2012-05-18T06:59:50Z</time>
      </trkpt>
      <trkpt lat="43.41463" lon="5.42752">
        <ele>304.8752441</ele>
        <time>2012-05-18T06:59:58Z</time>
      </trkpt>
      <trkpt lat="43.41462" lon="5.42706">
        <ele>301.991333</ele>
        <time>2012-05-18T07:00:03Z</time>
      </trkpt>
      <trkpt lat="43.41465" lon="5.42682">
        <ele>301.991333</ele>
        <time>2012-05-18T07:00:06Z</time>
      </trkpt>
      <trkpt lat="43.41467" lon="5.42659">
        <ele>300.0687256</ele>
        <time>2012-05-18T07:00:09Z</time>
      </trkpt>
      <trkpt lat="43.4147" lon="5.42636">
        <ele>298.626709</ele>
        <time>2012-05-18T07:00:11Z</time>
      </trkpt>
      <trkpt lat="43.41458" lon="5.42598">
        <ele>293.8200684</ele>
        <time>2012-05-18T07:00:17Z</time>
      </trkpt>
      <trkpt lat="43.4145" lon="5.42587">
        <ele>292.8587646</ele>
        <time>2012-05-18T07:00:18Z</time>
      </trkpt>
      <trkpt lat="43.41413" lon="5.42592">
        <ele>287.5714111</ele>
        <time>2012-05-18T07:00:28Z</time>
      </trkpt>
      <trkpt lat="43.414" lon="5.42588">
        <ele>285.6488037</ele>
        <time>2012-05-18T07:00:32Z</time>
      </trkpt>
      <trkpt lat="43.41365" lon="5.42568">
        <ele>284.6876221</ele>
        <time>2012-05-18T07:00:42Z</time>
      </trkpt>
      <trkpt lat="43.41344" lon="5.42534">
        <ele>284.2069092</ele>
        <time>2012-05-18T07:00:54Z</time>
      </trkpt>
      <trkpt lat="43.41319" lon="5.4251">
        <ele>281.8035889</ele>
        <time>2012-05-18T07:01:04Z</time>
      </trkpt>
      <trkpt lat="43.41278" lon="5.42483">
        <ele>279.8808594</ele>
        <time>2012-05-18T07:01:16Z</time>
      </trkpt>
      <trkpt lat="43.41263" lon="5.4249">
        <ele>278.9196777</ele>
        <time>2012-05-18T07:01:25Z</time>
      </trkpt>
      <trkpt lat="43.41243" lon="5.4252">
        <ele>277.4776611</ele>
        <time>2012-05-18T07:01:38Z</time>
      </trkpt>
      <trkpt lat="43.41215" lon="5.42559">
        <ele>278.9196777</ele>
        <time>2012-05-18T07:01:51Z</time>
      </trkpt>
      <trkpt lat="43.41174" lon="5.42598">
        <ele>279.8808594</ele>
        <time>2012-05-18T07:02:04Z</time>
      </trkpt>
      <trkpt lat="43.41136" lon="5.42608">
        <ele>280.8424072</ele>
        <time>2012-05-18T07:02:16Z</time>
      </trkpt>
      <trkpt lat="43.41123" lon="5.42616">
        <ele>281.8035889</ele>
        <time>2012-05-18T07:02:20Z</time>
      </trkpt>
      <trkpt lat="43.41115" lon="5.42636">
        <ele>282.2843018</ele>
        <time>2012-05-18T07:02:25Z</time>
      </trkpt>
      <trkpt lat="43.41108" lon="5.42653">
        <ele>282.2843018</ele>
        <time>2012-05-18T07:02:30Z</time>
      </trkpt>
      <trkpt lat="43.41111" lon="5.42675">
        <ele>282.7650146</ele>
        <time>2012-05-18T07:02:36Z</time>
      </trkpt>
      <trkpt lat="43.41112" lon="5.42719">
        <ele>284.6876221</ele>
        <time>2012-05-18T07:02:52Z</time>
      </trkpt>
      <trkpt lat="43.41108" lon="5.42758">
        <ele>287.0908203</ele>
        <time>2012-05-18T07:03:06Z</time>
      </trkpt>
      <trkpt lat="43.41109" lon="5.4278">
        <ele>288.0522461</ele>
        <time>2012-05-18T07:03:13Z</time>
      </trkpt>
      <trkpt lat="43.41109" lon="5.42788">
        <ele>288.532959</ele>
        <time>2012-05-18T07:03:16Z</time>
      </trkpt>
      <trkpt lat="43.4111" lon="5.42798">
        <ele>289.9748535</ele>
        <time>2012-05-18T07:03:20Z</time>
      </trkpt>
      <trkpt lat="43.411" lon="5.42841">
        <ele>292.8587646</ele>
        <time>2012-05-18T07:03:36Z</time>
      </trkpt>
      <trkpt lat="43.41087" lon="5.4287">
        <ele>294.7813721</ele>
        <time>2012-05-18T07:03:46Z</time>
      </trkpt>
      <trkpt lat="43.41072" lon="5.42888">
        <ele>295.2619629</ele>
        <time>2012-05-18T07:03:57Z</time>
      </trkpt>
      <trkpt lat="43.41062" lon="5.42913">
        <ele>295.7426758</ele>
        <time>2012-05-18T07:04:08Z</time>
      </trkpt>
      <trkpt lat="43.41053" lon="5.42932">
        <ele>297.1846924</ele>
        <time>2012-05-18T07:04:16Z</time>
      </trkpt>
      <trkpt lat="43.41051" lon="5.42937">
        <ele>297.1846924</ele>
        <time>2012-05-18T07:04:19Z</time>
      </trkpt>
      <trkpt lat="43.41036" lon="5.42958">
        <ele>298.626709</ele>
        <time>2012-05-18T07:04:32Z</time>
      </trkpt>
      <trkpt lat="43.41032" lon="5.42958">
        <ele>299.1072998</ele>
        <time>2012-05-18T07:04:34Z</time>
      </trkpt>
      <trkpt lat="43.41019" lon="5.42968">
        <ele>301.0299072</ele>
        <time>2012-05-18T07:04:42Z</time>
      </trkpt>
      <trkpt lat="43.41008" lon="5.42976">
        <ele>302.9525146</ele>
        <time>2012-05-18T07:04:48Z</time>
      </trkpt>
      <trkpt lat="43.41" lon="5.42981">
        <ele>304.3946533</ele>
        <time>2012-05-18T07:04:53Z</time>
      </trkpt>
      <trkpt lat="43.40996" lon="5.42984">
        <ele>305.8366699</ele>
        <time>2012-05-18T07:04:56Z</time>
      </trkpt>
      <trkpt lat="43.40986" lon="5.43006">
        <ele>308.2398682</ele>
        <time>2012-05-18T07:05:07Z</time>
      </trkpt>
      <trkpt lat="43.40976" lon="5.43035">
        <ele>309.2011719</ele>
        <time>2012-05-18T07:05:18Z</time>
      </trkpt>
      <trkpt lat="43.40973" lon="5.43059">
        <ele>314.4884033</ele>
        <time>2012-05-18T07:05:29Z</time>
      </trkpt>
      <trkpt lat="43.40977" lon="5.43086">
        <ele>317.8530273</ele>
        <time>2012-05-18T07:05:38Z</time>
      </trkpt>
      <trkpt lat="43.40975" lon="5.43097">
        <ele>318.8143311</ele>
        <time>2012-05-18T07:05:42Z</time>
      </trkpt>
      <trkpt lat="43.40955" lon="5.43113">
        <ele>322.1789551</ele>
        <time>2012-05-18T07:05:53Z</time>
      </trkpt>
      <trkpt lat="43.4094" lon="5.4311">
        <ele>323.6209717</ele>
        <time>2012-05-18T07:06:02Z</time>
      </trkpt>
      <trkpt lat="43.40908" lon="5.43104">
        <ele>326.9855957</ele>
        <time>2012-05-18T07:06:16Z</time>
      </trkpt>
      <trkpt lat="43.40879" lon="5.43103">
        <ele>329.8695068</ele>
        <time>2012-05-18T07:06:29Z</time>
      </trkpt>
      <trkpt lat="43.4086" lon="5.43108">
        <ele>331.7921143</ele>
        <time>2012-05-18T07:06:38Z</time>
      </trkpt>
      <trkpt lat="43.4086" lon="5.43128">
        <ele>333.7147217</ele>
        <time>2012-05-18T07:06:47Z</time>
      </trkpt>
      <trkpt lat="43.40865" lon="5.43145">
        <ele>338.5214844</ele>
        <time>2012-05-18T07:06:53Z</time>
      </trkpt>
      <trkpt lat="43.40865" lon="5.43155">
        <ele>339.9633789</ele>
        <time>2012-05-18T07:06:57Z</time>
      </trkpt>
      <trkpt lat="43.40868" lon="5.43188">
        <ele>343.8085938</ele>
        <time>2012-05-18T07:07:08Z</time>
      </trkpt>
      <trkpt lat="43.40873" lon="5.43221">
        <ele>348.1346436</ele>
        <time>2012-05-18T07:07:19Z</time>
      </trkpt>
      <trkpt lat="43.40872" lon="5.43239">
        <ele>349.5765381</ele>
        <time>2012-05-18T07:07:25Z</time>
      </trkpt>
      <trkpt lat="43.40863" lon="5.43254">
        <ele>352.4605713</ele>
        <time>2012-05-18T07:07:30Z</time>
      </trkpt>
      <trkpt lat="43.40852" lon="5.43257">
        <ele>353.9025879</ele>
        <time>2012-05-18T07:07:34Z</time>
      </trkpt>
      <trkpt lat="43.40845" lon="5.43262">
        <ele>355.3444824</ele>
        <time>2012-05-18T07:07:37Z</time>
      </trkpt>
      <trkpt lat="43.40826" lon="5.43271">
        <ele>357.7478027</ele>
        <time>2012-05-18T07:07:47Z</time>
      </trkpt>
      <trkpt lat="43.40821" lon="5.43276">
        <ele>358.2283936</ele>
        <time>2012-05-18T07:07:51Z</time>
      </trkpt>
      <trkpt lat="43.40804" lon="5.43287">
        <ele>360.151123</ele>
        <time>2012-05-18T07:07:59Z</time>
      </trkpt>
      <trkpt lat="43.40795" lon="5.4329">
        <ele>360.151123</ele>
        <time>2012-05-18T07:08:04Z</time>
      </trkpt>
      <trkpt lat="43.40783" lon="5.43286">
        <ele>361.1124268</ele>
        <time>2012-05-18T07:08:11Z</time>
      </trkpt>
      <trkpt lat="43.40776" lon="5.43288">
        <ele>361.5931396</ele>
        <time>2012-05-18T07:08:14Z</time>
      </trkpt>
      <trkpt lat="43.40767" lon="5.43289">
        <ele>362.5543213</ele>
        <time>2012-05-18T07:08:18Z</time>
      </trkpt>
      <trkpt lat="43.40757" lon="5.43297">
        <ele>363.0350342</ele>
        <time>2012-05-18T07:08:26Z</time>
      </trkpt>
      <trkpt lat="43.40753" lon="5.43307">
        <ele>364.4769287</ele>
        <time>2012-05-18T07:08:30Z</time>
      </trkpt>
      <trkpt lat="43.4075" lon="5.43335">
        <ele>367.3609619</ele>
        <time>2012-05-18T07:08:41Z</time>
      </trkpt>
      <trkpt lat="43.40751" lon="5.43357">
        <ele>368.3222656</ele>
        <time>2012-05-18T07:08:47Z</time>
      </trkpt>
      <trkpt lat="43.40755" lon="5.43367">
        <ele>369.2836914</ele>
        <time>2012-05-18T07:08:51Z</time>
      </trkpt>
      <trkpt lat="43.40756" lon="5.43372">
        <ele>369.2836914</ele>
        <time>2012-05-18T07:08:53Z</time>
      </trkpt>
      <trkpt lat="43.4076" lon="5.43379">
        <ele>370.244873</ele>
        <time>2012-05-18T07:08:56Z</time>
      </trkpt>
      <trkpt lat="43.40764" lon="5.43395">
        <ele>371.2062988</ele>
        <time>2012-05-18T07:09:02Z</time>
      </trkpt>
      <trkpt lat="43.40772" lon="5.43431">
        <ele>373.6094971</ele>
        <time>2012-05-18T07:09:14Z</time>
      </trkpt>
      <trkpt lat="43.40783" lon="5.43461">
        <ele>376.4935303</ele>
        <time>2012-05-18T07:09:28Z</time>
      </trkpt>
      <trkpt lat="43.40812" lon="5.43473">
        <ele>377.9354248</ele>
        <time>2012-05-18T07:09:43Z</time>
      </trkpt>
      <trkpt lat="43.40832" lon="5.43471">
        <ele>378.8968506</ele>
        <time>2012-05-18T07:09:53Z</time>
      </trkpt>
      <trkpt lat="43.40862" lon="5.4348">
        <ele>378.8968506</ele>
        <time>2012-05-18T07:10:05Z</time>
      </trkpt>
      <trkpt lat="43.40868" lon="5.43515">
        <ele>381.3000488</ele>
        <time>2012-05-18T07:10:16Z</time>
      </trkpt>
      <trkpt lat="43.4087" lon="5.43521">
        <ele>381.7806396</ele>
        <time>2012-05-18T07:10:18Z</time>
      </trkpt>
      <trkpt lat="43.40882" lon="5.43555">
        <ele>386.5874023</ele>
        <time>2012-05-18T07:10:31Z</time>
      </trkpt>
      <trkpt lat="43.40872" lon="5.43572">
        <ele>388.5100098</ele>
        <time>2012-05-18T07:10:37Z</time>
      </trkpt>
      <trkpt lat="43.4085" lon="5.43589">
        <ele>388.9906006</ele>
        <time>2012-05-18T07:10:49Z</time>
      </trkpt>
      <trkpt lat="43.40847" lon="5.43597">
        <ele>388.9906006</ele>
        <time>2012-05-18T07:10:52Z</time>
      </trkpt>
      <trkpt lat="43.40837" lon="5.43622">
        <ele>388.5100098</ele>
        <time>2012-05-18T07:11:02Z</time>
      </trkpt>
      <trkpt lat="43.40844" lon="5.43651">
        <ele>389.4711914</ele>
        <time>2012-05-18T07:11:12Z</time>
      </trkpt>
      <trkpt lat="43.40845" lon="5.43655">
        <ele>389.4711914</ele>
        <time>2012-05-18T07:11:14Z</time>
      </trkpt>
      <trkpt lat="43.40848" lon="5.43665">
        <ele>389.9519043</ele>
        <time>2012-05-18T07:11:19Z</time>
      </trkpt>
      <trkpt lat="43.40852" lon="5.43675">
        <ele>390.4326172</ele>
        <time>2012-05-18T07:11:23Z</time>
      </trkpt>
      <trkpt lat="43.40855" lon="5.43716">
        <ele>394.7585449</ele>
        <time>2012-05-18T07:11:37Z</time>
      </trkpt>
      <trkpt lat="43.40874" lon="5.43745">
        <ele>398.1231689</ele>
        <time>2012-05-18T07:11:51Z</time>
      </trkpt>
      <trkpt lat="43.4088" lon="5.43757">
        <ele>399.5650635</ele>
        <time>2012-05-18T07:11:56Z</time>
      </trkpt>
      <trkpt lat="43.40878" lon="5.43777">
        <ele>401.487793</ele>
        <time>2012-05-18T07:12:03Z</time>
      </trkpt>
      <trkpt lat="43.4089" lon="5.43808">
        <ele>407.7363281</ele>
        <time>2012-05-18T07:12:19Z</time>
      </trkpt>
      <trkpt lat="43.40888" lon="5.43844">
        <ele>412.0622559</ele>
        <time>2012-05-18T07:12:31Z</time>
      </trkpt>
      <trkpt lat="43.40881" lon="5.43859">
        <ele>413.9848633</ele>
        <time>2012-05-18T07:12:35Z</time>
      </trkpt>
      <trkpt lat="43.40854" lon="5.43867">
        <ele>411.581665</ele>
        <time>2012-05-18T07:12:47Z</time>
      </trkpt>
      <trkpt lat="43.40842" lon="5.43873">
        <ele>410.6202393</ele>
        <time>2012-05-18T07:12:53Z</time>
      </trkpt>
      <trkpt lat="43.4084" lon="5.43878">
        <ele>410.6202393</ele>
        <time>2012-05-18T07:12:55Z</time>
      </trkpt>
      <trkpt lat="43.40854" lon="5.43906">
        <ele>412.0622559</ele>
        <time>2012-05-18T07:13:05Z</time>
      </trkpt>
      <trkpt lat="43.40859" lon="5.43911">
        <ele>412.5428467</ele>
        <time>2012-05-18T07:13:08Z</time>
      </trkpt>
      <trkpt lat="43.40863" lon="5.43917">
        <ele>412.5428467</ele>
        <time>2012-05-18T07:13:10Z</time>
      </trkpt>
      <trkpt lat="43.4088" lon="5.43948">
        <ele>414.946167</ele>
        <time>2012-05-18T07:13:22Z</time>
      </trkpt>
      <trkpt lat="43.40884" lon="5.43972">
        <ele>416.8688965</ele>
        <time>2012-05-18T07:13:30Z</time>
      </trkpt>
      <trkpt lat="43.40879" lon="5.44002">
        <ele>420.2333984</ele>
        <time>2012-05-18T07:13:38Z</time>
      </trkpt>
      <trkpt lat="43.40876" lon="5.44009">
        <ele>421.675415</ele>
        <time>2012-05-18T07:13:41Z</time>
      </trkpt>
      <trkpt lat="43.40872" lon="5.44016">
        <ele>422.1560059</ele>
        <time>2012-05-18T07:13:44Z</time>
      </trkpt>
      <trkpt lat="43.40866" lon="5.44022">
        <ele>423.1174316</ele>
        <time>2012-05-18T07:13:48Z</time>
      </trkpt>
      <trkpt lat="43.40862" lon="5.4405">
        <ele>426.0013428</ele>
        <time>2012-05-18T07:13:59Z</time>
      </trkpt>
      <trkpt lat="43.40866" lon="5.4406">
        <ele>427.4433594</ele>
        <time>2012-05-18T07:14:03Z</time>
      </trkpt>
      <trkpt lat="43.40871" lon="5.44084">
        <ele>429.3659668</ele>
        <time>2012-05-18T07:14:10Z</time>
      </trkpt>
      <trkpt lat="43.4087" lon="5.44091">
        <ele>429.8465576</ele>
        <time>2012-05-18T07:14:12Z</time>
      </trkpt>
      <trkpt lat="43.40869" lon="5.4413">
        <ele>432.25</ele>
        <time>2012-05-18T07:14:24Z</time>
      </trkpt>
      <trkpt lat="43.40866" lon="5.44141">
        <ele>432.7307129</ele>
        <time>2012-05-18T07:14:28Z</time>
      </trkpt>
      <trkpt lat="43.40863" lon="5.44167">
        <ele>434.6533203</ele>
        <time>2012-05-18T07:14:38Z</time>
      </trkpt>
      <trkpt lat="43.40861" lon="5.44181">
        <ele>435.1339111</ele>
        <time>2012-05-18T07:14:43Z</time>
      </trkpt>
      <trkpt lat="43.40873" lon="5.44204">
        <ele>436.5759277</ele>
        <time>2012-05-18T07:14:52Z</time>
      </trkpt>
      <trkpt lat="43.40877" lon="5.44214">
        <ele>436.5759277</ele>
        <time>2012-05-18T07:14:56Z</time>
      </trkpt>
      <trkpt lat="43.4088" lon="5.44224">
        <ele>437.0565186</ele>
        <time>2012-05-18T07:15:00Z</time>
      </trkpt>
      <trkpt lat="43.40885" lon="5.44256">
        <ele>438.4985352</ele>
        <time>2012-05-18T07:15:12Z</time>
      </trkpt>
      <trkpt lat="43.40885" lon="5.44286">
        <ele>439.4597168</ele>
        <time>2012-05-18T07:15:23Z</time>
      </trkpt>
      <trkpt lat="43.40886" lon="5.44307">
        <ele>440.9018555</ele>
        <time>2012-05-18T07:15:30Z</time>
      </trkpt>
      <trkpt lat="43.40887" lon="5.44321">
        <ele>440.9018555</ele>
        <time>2012-05-18T07:15:34Z</time>
      </trkpt>
      <trkpt lat="43.40891" lon="5.44333">
        <ele>441.3824463</ele>
        <time>2012-05-18T07:15:38Z</time>
      </trkpt>
      <trkpt lat="43.40907" lon="5.44359">
        <ele>443.3050537</ele>
        <time>2012-05-18T07:15:49Z</time>
      </trkpt>
      <trkpt lat="43.40912" lon="5.44397">
        <ele>445.708374</ele>
        <time>2012-05-18T07:16:03Z</time>
      </trkpt>
      <trkpt lat="43.40909" lon="5.44433">
        <ele>446.6696777</ele>
        <time>2012-05-18T07:16:18Z</time>
      </trkpt>
      <trkpt lat="43.40902" lon="5.44473">
        <ele>447.1502686</ele>
        <time>2012-05-18T07:16:34Z</time>
      </trkpt>
      <trkpt lat="43.40888" lon="5.44514">
        <ele>449.072998</ele>
        <time>2012-05-18T07:16:51Z</time>
      </trkpt>
      <trkpt lat="43.40887" lon="5.44518">
        <ele>449.5537109</ele>
        <time>2012-05-18T07:16:53Z</time>
      </trkpt>
      <trkpt lat="43.40885" lon="5.44529">
        <ele>451.4763184</ele>
        <time>2012-05-18T07:16:57Z</time>
      </trkpt>
      <trkpt lat="43.40881" lon="5.44549">
        <ele>454.3602295</ele>
        <time>2012-05-18T07:17:06Z</time>
      </trkpt>
      <trkpt lat="43.40878" lon="5.44558">
        <ele>454.8408203</ele>
        <time>2012-05-18T07:17:10Z</time>
      </trkpt>
      <trkpt lat="43.40877" lon="5.44588">
        <ele>456.7635498</ele>
        <time>2012-05-18T07:17:23Z</time>
      </trkpt>
      <trkpt lat="43.40866" lon="5.44625">
        <ele>458.2055664</ele>
        <time>2012-05-18T07:17:37Z</time>
      </trkpt>
      <trkpt lat="43.40849" lon="5.44652">
        <ele>461.0894775</ele>
        <time>2012-05-18T07:17:51Z</time>
      </trkpt>
      <trkpt lat="43.40834" lon="5.44669">
        <ele>465.4155273</ele>
        <time>2012-05-18T07:18:01Z</time>
      </trkpt>
      <trkpt lat="43.40827" lon="5.44675">
        <ele>467.3381348</ele>
        <time>2012-05-18T07:18:05Z</time>
      </trkpt>
      <trkpt lat="43.40817" lon="5.4469">
        <ele>468.7800293</ele>
        <time>2012-05-18T07:18:13Z</time>
      </trkpt>
      <trkpt lat="43.40818" lon="5.44699">
        <ele>469.2607422</ele>
        <time>2012-05-18T07:18:16Z</time>
      </trkpt>
      <trkpt lat="43.40825" lon="5.44737">
        <ele>470.7026367</ele>
        <time>2012-05-18T07:18:29Z</time>
      </trkpt>
      <trkpt lat="43.40825" lon="5.44742">
        <ele>470.7026367</ele>
        <time>2012-05-18T07:18:31Z</time>
      </trkpt>
      <trkpt lat="43.40827" lon="5.44749">
        <ele>471.6639404</ele>
        <time>2012-05-18T07:18:34Z</time>
      </trkpt>
      <trkpt lat="43.4083" lon="5.44761">
        <ele>470.2219238</ele>
        <time>2012-05-18T07:18:39Z</time>
      </trkpt>
      <trkpt lat="43.40827" lon="5.44773">
        <ele>470.2219238</ele>
        <time>2012-05-18T07:18:43Z</time>
      </trkpt>
      <trkpt lat="43.40824" lon="5.44802">
        <ele>473.1060791</ele>
        <time>2012-05-18T07:18:53Z</time>
      </trkpt>
      <trkpt lat="43.40819" lon="5.4483">
        <ele>477.4318848</ele>
        <time>2012-05-18T07:19:02Z</time>
      </trkpt>
      <trkpt lat="43.40815" lon="5.4486">
        <ele>477.9124756</ele>
        <time>2012-05-18T07:19:13Z</time>
      </trkpt>
      <trkpt lat="43.40814" lon="5.44873">
        <ele>479.3544922</ele>
        <time>2012-05-18T07:19:18Z</time>
      </trkpt>
      <trkpt lat="43.40805" lon="5.44911">
        <ele>480.315918</ele>
        <time>2012-05-18T07:19:33Z</time>
      </trkpt>
      <trkpt lat="43.40805" lon="5.44915">
        <ele>480.7966309</ele>
        <time>2012-05-18T07:19:34Z</time>
      </trkpt>
      <trkpt lat="43.40802" lon="5.44946">
        <ele>481.7578125</ele>
        <time>2012-05-18T07:19:48Z</time>
      </trkpt>
      <trkpt lat="43.40798" lon="5.4497">
        <ele>484.1611328</ele>
        <time>2012-05-18T07:19:59Z</time>
      </trkpt>
      <trkpt lat="43.4079" lon="5.4499">
        <ele>487.5256348</ele>
        <time>2012-05-18T07:20:08Z</time>
      </trkpt>
      <trkpt lat="43.40778" lon="5.45016">
        <ele>492.8129883</ele>
        <time>2012-05-18T07:20:22Z</time>
      </trkpt>
      <trkpt lat="43.40768" lon="5.45028">
        <ele>495.6968994</ele>
        <time>2012-05-18T07:20:30Z</time>
      </trkpt>
      <trkpt lat="43.4075" lon="5.45044">
        <ele>500.0229492</ele>
        <time>2012-05-18T07:20:44Z</time>
      </trkpt>
      <trkpt lat="43.40738" lon="5.45061">
        <ele>501.4648438</ele>
        <time>2012-05-18T07:20:56Z</time>
      </trkpt>
      <trkpt lat="43.40716" lon="5.45084">
        <ele>502.9067383</ele>
        <time>2012-05-18T07:21:10Z</time>
      </trkpt>
      <trkpt lat="43.40694" lon="5.45101">
        <ele>506.7520752</ele>
        <time>2012-05-18T07:21:25Z</time>
      </trkpt>
      <trkpt lat="43.4067" lon="5.45118">
        <ele>506.2714844</ele>
        <time>2012-05-18T07:21:40Z</time>
      </trkpt>
      <trkpt lat="43.40664" lon="5.45122">
        <ele>506.2714844</ele>
        <time>2012-05-18T07:21:43Z</time>
      </trkpt>
      <trkpt lat="43.40657" lon="5.45124">
        <ele>506.2714844</ele>
        <time>2012-05-18T07:21:47Z</time>
      </trkpt>
      <trkpt lat="43.40653" lon="5.45123">
        <ele>508.1940918</ele>
        <time>2012-05-18T07:21:50Z</time>
      </trkpt>
      <trkpt lat="43.40637" lon="5.45132">
        <ele>508.6746826</ele>
        <time>2012-05-18T07:22:00Z</time>
      </trkpt>
      <trkpt lat="43.40636" lon="5.45144">
        <ele>510.1166992</ele>
        <time>2012-05-18T07:22:05Z</time>
      </trkpt>
      <trkpt lat="43.40638" lon="5.45174">
        <ele>510.59729</ele>
        <time>2012-05-18T07:22:16Z</time>
      </trkpt>
      <trkpt lat="43.40639" lon="5.45177">
        <ele>510.59729</ele>
        <time>2012-05-18T07:22:17Z</time>
      </trkpt>
      <trkpt lat="43.40638" lon="5.45193">
        <ele>509.1553955</ele>
        <time>2012-05-18T07:22:23Z</time>
      </trkpt>
      <trkpt lat="43.40627" lon="5.45224">
        <ele>509.6361084</ele>
        <time>2012-05-18T07:22:35Z</time>
      </trkpt>
      <trkpt lat="43.40614" lon="5.45257">
        <ele>512.0394287</ele>
        <time>2012-05-18T07:22:47Z</time>
      </trkpt>
      <trkpt lat="43.40607" lon="5.45283">
        <ele>513.0007324</ele>
        <time>2012-05-18T07:22:57Z</time>
      </trkpt>
      <trkpt lat="43.40607" lon="5.45286">
        <ele>513.0007324</ele>
        <time>2012-05-18T07:22:58Z</time>
      </trkpt>
      <trkpt lat="43.40608" lon="5.45305">
        <ele>514.442627</ele>
        <time>2012-05-18T07:23:06Z</time>
      </trkpt>
      <trkpt lat="43.40617" lon="5.45324">
        <ele>517.807251</ele>
        <time>2012-05-18T07:23:14Z</time>
      </trkpt>
      <trkpt lat="43.40635" lon="5.45343">
        <ele>521.1719971</ele>
        <time>2012-05-18T07:23:26Z</time>
      </trkpt>
      <trkpt lat="43.40641" lon="5.45353">
        <ele>521.6525879</ele>
        <time>2012-05-18T07:23:31Z</time>
      </trkpt>
      <trkpt lat="43.40643" lon="5.45361">
        <ele>522.6138916</ele>
        <time>2012-05-18T07:23:35Z</time>
      </trkpt>
      <trkpt lat="43.40647" lon="5.45368">
        <ele>523.0946045</ele>
        <time>2012-05-18T07:23:38Z</time>
      </trkpt>
      <trkpt lat="43.40652" lon="5.45386">
        <ele>525.0172119</ele>
        <time>2012-05-18T07:23:45Z</time>
      </trkpt>
      <trkpt lat="43.40658" lon="5.45398">
        <ele>526.4591064</ele>
        <time>2012-05-18T07:23:51Z</time>
      </trkpt>
      <trkpt lat="43.40669" lon="5.45431">
        <ele>530.3044434</ele>
        <time>2012-05-18T07:24:05Z</time>
      </trkpt>
      <trkpt lat="43.4067" lon="5.45446">
        <ele>531.7463379</ele>
        <time>2012-05-18T07:24:11Z</time>
      </trkpt>
      <trkpt lat="43.40674" lon="5.4548">
        <ele>535.1109619</ele>
        <time>2012-05-18T07:24:24Z</time>
      </trkpt>
      <trkpt lat="43.40679" lon="5.45493">
        <ele>537.9949951</ele>
        <time>2012-05-18T07:24:29Z</time>
      </trkpt>
      <trkpt lat="43.40679" lon="5.45534">
        <ele>540.8789062</ele>
        <time>2012-05-18T07:24:41Z</time>
      </trkpt>
      <trkpt lat="43.40675" lon="5.45552">
        <ele>541.84021</ele>
        <time>2012-05-18T07:24:46Z</time>
      </trkpt>
      <trkpt lat="43.4067" lon="5.45563">
        <ele>541.84021</ele>
        <time>2012-05-18T07:24:50Z</time>
      </trkpt>
      <trkpt lat="43.4066" lon="5.45577">
        <ele>541.3594971</ele>
        <time>2012-05-18T07:24:56Z</time>
      </trkpt>
      <trkpt lat="43.4065" lon="5.45593">
        <ele>539.9176025</ele>
        <time>2012-05-18T07:25:03Z</time>
      </trkpt>
      <trkpt lat="43.40623" lon="5.45606">
        <ele>542.3209229</ele>
        <time>2012-05-18T07:25:15Z</time>
      </trkpt>
      <trkpt lat="43.40621" lon="5.45607">
        <ele>542.8015137</ele>
        <time>2012-05-18T07:25:16Z</time>
      </trkpt>
      <trkpt lat="43.40614" lon="5.45601">
        <ele>543.7628174</ele>
        <time>2012-05-18T07:25:18Z</time>
      </trkpt>
      <trkpt lat="43.40605" lon="5.45609">
        <ele>543.2821045</ele>
        <time>2012-05-18T07:25:23Z</time>
      </trkpt>
      <trkpt lat="43.406" lon="5.45627">
        <ele>546.1662598</ele>
        <time>2012-05-18T07:25:31Z</time>
      </trkpt>
      <trkpt lat="43.40603" lon="5.45643">
        <ele>547.1274414</ele>
        <time>2012-05-18T07:25:37Z</time>
      </trkpt>
      <trkpt lat="43.40603" lon="5.45681">
        <ele>553.3759766</ele>
        <time>2012-05-18T07:25:51Z</time>
      </trkpt>
      <trkpt lat="43.40599" lon="5.45718">
        <ele>557.2214355</ele>
        <time>2012-05-18T07:26:05Z</time>
      </trkpt>
      <trkpt lat="43.40596" lon="5.45725">
        <ele>557.7021484</ele>
        <time>2012-05-18T07:26:08Z</time>
      </trkpt>
      <trkpt lat="43.40591" lon="5.45763">
        <ele>557.2214355</ele>
        <time>2012-05-18T07:26:23Z</time>
      </trkpt>
      <trkpt lat="43.40587" lon="5.45772">
        <ele>557.7021484</ele>
        <time>2012-05-18T07:26:26Z</time>
      </trkpt>
      <trkpt lat="43.4057" lon="5.45796">
        <ele>556.2600098</ele>
        <time>2012-05-18T07:26:36Z</time>
      </trkpt>
      <trkpt lat="43.40574" lon="5.45808">
        <ele>554.8178711</ele>
        <time>2012-05-18T07:26:41Z</time>
      </trkpt>
      <trkpt lat="43.40578" lon="5.45844">
        <ele>553.3759766</ele>
        <time>2012-05-18T07:26:53Z</time>
      </trkpt>
      <trkpt lat="43.40564" lon="5.45866">
        <ele>554.3374023</ele>
        <time>2012-05-18T07:27:03Z</time>
      </trkpt>
      <trkpt lat="43.40548" lon="5.45876">
        <ele>553.8566895</ele>
        <time>2012-05-18T07:27:09Z</time>
      </trkpt>
      <trkpt lat="43.40539" lon="5.45882">
        <ele>555.298584</ele>
        <time>2012-05-18T07:27:14Z</time>
      </trkpt>
      <trkpt lat="43.40539" lon="5.45889">
        <ele>556.7407227</ele>
        <time>2012-05-18T07:27:18Z</time>
      </trkpt>
      <trkpt lat="43.40541" lon="5.459">
        <ele>559.144043</ele>
        <time>2012-05-18T07:27:24Z</time>
      </trkpt>
      <trkpt lat="43.40545" lon="5.45926">
        <ele>562.5085449</ele>
        <time>2012-05-18T07:27:36Z</time>
      </trkpt>
      <trkpt lat="43.40542" lon="5.45943">
        <ele>564.9118652</ele>
        <time>2012-05-18T07:27:42Z</time>
      </trkpt>
      <trkpt lat="43.40554" lon="5.45944">
        <ele>567.7956543</ele>
        <time>2012-05-18T07:27:50Z</time>
      </trkpt>
      <trkpt lat="43.40552" lon="5.45932">
        <ele>567.3151855</ele>
        <time>2012-05-18T07:27:54Z</time>
      </trkpt>
      <trkpt lat="43.40553" lon="5.45899">
        <ele>569.7185059</ele>
        <time>2012-05-18T07:28:05Z</time>
      </trkpt>
      <trkpt lat="43.40575" lon="5.45884">
        <ele>570.1989746</ele>
        <time>2012-05-18T07:28:16Z</time>
      </trkpt>
      <trkpt lat="43.40599" lon="5.45851">
        <ele>570.1989746</ele>
        <time>2012-05-18T07:28:30Z</time>
      </trkpt>
      <trkpt lat="43.40602" lon="5.45838">
        <ele>569.7185059</ele>
        <time>2012-05-18T07:28:34Z</time>
      </trkpt>
      <trkpt lat="43.40605" lon="5.45813">
        <ele>569.237793</ele>
        <time>2012-05-18T07:28:43Z</time>
      </trkpt>
      <trkpt lat="43.40632" lon="5.45791">
        <ele>570.1989746</ele>
        <time>2012-05-18T07:28:56Z</time>
      </trkpt>
      <trkpt lat="43.40634" lon="5.45789">
        <ele>570.6796875</ele>
        <time>2012-05-18T07:28:57Z</time>
      </trkpt>
      <trkpt lat="43.4064" lon="5.45764">
        <ele>572.6025391</ele>
        <time>2012-05-18T07:29:06Z</time>
      </trkpt>
      <trkpt lat="43.40641" lon="5.45748">
        <ele>574.0444336</ele>
        <time>2012-05-18T07:29:12Z</time>
      </trkpt>
      <trkpt lat="43.40655" lon="5.45707">
        <ele>573.083252</ele>
        <time>2012-05-18T07:29:26Z</time>
      </trkpt>
      <trkpt lat="43.40667" lon="5.45685">
        <ele>573.5639648</ele>
        <time>2012-05-18T07:29:34Z</time>
      </trkpt>
      <trkpt lat="43.40686" lon="5.4567">
        <ele>574.5251465</ele>
        <time>2012-05-18T07:29:44Z</time>
      </trkpt>
      <trkpt lat="43.40699" lon="5.45658">
        <ele>576.4477539</ele>
        <time>2012-05-18T07:29:52Z</time>
      </trkpt>
      <trkpt lat="43.40718" lon="5.45643">
        <ele>576.9284668</ele>
        <time>2012-05-18T07:30:05Z</time>
      </trkpt>
      <trkpt lat="43.40727" lon="5.45629">
        <ele>578.8510742</ele>
        <time>2012-05-18T07:30:11Z</time>
      </trkpt>
      <trkpt lat="43.40747" lon="5.45597">
        <ele>580.7736816</ele>
        <time>2012-05-18T07:30:25Z</time>
      </trkpt>
      <trkpt lat="43.4076" lon="5.45575">
        <ele>583.6574707</ele>
        <time>2012-05-18T07:30:34Z</time>
      </trkpt>
      <trkpt lat="43.40771" lon="5.45569">
        <ele>584.6188965</ele>
        <time>2012-05-18T07:30:39Z</time>
      </trkpt>
      <trkpt lat="43.40799" lon="5.45589">
        <ele>585.0996094</ele>
        <time>2012-05-18T07:30:53Z</time>
      </trkpt>
      <trkpt lat="43.40803" lon="5.45591">
        <ele>585.5800781</ele>
        <time>2012-05-18T07:30:55Z</time>
      </trkpt>
      <trkpt lat="43.40828" lon="5.45609">
        <ele>587.9833984</ele>
        <time>2012-05-18T07:31:07Z</time>
      </trkpt>
      <trkpt lat="43.40855" lon="5.45638">
        <ele>589.90625</ele>
        <time>2012-05-18T07:31:21Z</time>
      </trkpt>
      <trkpt lat="43.40859" lon="5.4565">
        <ele>589.90625</ele>
        <time>2012-05-18T07:31:30Z</time>
      </trkpt>
      <trkpt lat="43.40857" lon="5.45652">
        <ele>588.9450684</ele>
        <time>2012-05-18T07:31:46Z</time>
      </trkpt>
      <trkpt lat="43.40858" lon="5.45646">
        <ele>587.9833984</ele>
        <time>2012-05-18T07:32:29Z</time>
      </trkpt>
      <trkpt lat="43.40859" lon="5.45644">
        <ele>587.5026855</ele>
        <time>2012-05-18T07:33:08Z</time>
      </trkpt>
      <trkpt lat="43.4086" lon="5.45643">
        <ele>587.5026855</ele>
        <time>2012-05-18T07:33:12Z</time>
      </trkpt>
      <trkpt lat="43.40858" lon="5.45643">
        <ele>587.9833984</ele>
        <time>2012-05-18T07:33:26Z</time>
      </trkpt>
      <trkpt lat="43.4086" lon="5.45645">
        <ele>588.4643555</ele>
        <time>2012-05-18T07:34:37Z</time>
      </trkpt>
      <trkpt lat="43.40859" lon="5.45645">
        <ele>588.4643555</ele>
        <time>2012-05-18T07:34:54Z</time>
      </trkpt>
      <trkpt lat="43.40858" lon="5.45644">
        <ele>587.5026855</ele>
        <time>2012-05-18T07:35:57Z</time>
      </trkpt>
      <trkpt lat="43.40858" lon="5.45644">
        <ele>590.3869629</ele>
        <time>2012-05-18T07:36:29Z</time>
      </trkpt>
      <trkpt lat="43.40864" lon="5.45642">
        <ele>590.8674316</ele>
        <time>2012-05-18T07:37:08Z</time>
      </trkpt>
      <trkpt lat="43.40868" lon="5.45629">
        <ele>587.5026855</ele>
        <time>2012-05-18T07:37:13Z</time>
      </trkpt>
      <trkpt lat="43.40867" lon="5.45609">
        <ele>583.6574707</ele>
        <time>2012-05-18T07:37:18Z</time>
      </trkpt>
      <trkpt lat="43.40849" lon="5.45571">
        <ele>575.0058594</ele>
        <time>2012-05-18T07:37:27Z</time>
      </trkpt>
      <trkpt lat="43.40845" lon="5.45562">
        <ele>570.1989746</ele>
        <time>2012-05-18T07:37:30Z</time>
      </trkpt>
      <trkpt lat="43.40841" lon="5.45545">
        <ele>567.3151855</ele>
        <time>2012-05-18T07:37:33Z</time>
      </trkpt>
      <trkpt lat="43.40831" lon="5.45517">
        <ele>562.5085449</ele>
        <time>2012-05-18T07:37:38Z</time>
      </trkpt>
      <trkpt lat="43.40825" lon="5.45474">
        <ele>556.2600098</ele>
        <time>2012-05-18T07:37:44Z</time>
      </trkpt>
      <trkpt lat="43.40826" lon="5.45447">
        <ele>552.4145508</ele>
        <time>2012-05-18T07:37:48Z</time>
      </trkpt>
      <trkpt lat="43.40823" lon="5.4543">
        <ele>549.5307617</ele>
        <time>2012-05-18T07:37:51Z</time>
      </trkpt>
      <trkpt lat="43.40826" lon="5.45413">
        <ele>547.1274414</ele>
        <time>2012-05-18T07:37:55Z</time>
      </trkpt>
      <trkpt lat="43.40824" lon="5.45396">
        <ele>540.3983154</ele>
        <time>2012-05-18T07:38:02Z</time>
      </trkpt>
      <trkpt lat="43.40817" lon="5.45396">
        <ele>537.0336914</ele>
        <time>2012-05-18T07:38:14Z</time>
      </trkpt>
      <trkpt lat="43.40818" lon="5.45391">
        <ele>535.1109619</ele>
        <time>2012-05-18T07:38:21Z</time>
      </trkpt>
      <trkpt lat="43.40819" lon="5.45385">
        <ele>533.6689453</ele>
        <time>2012-05-18T07:38:25Z</time>
      </trkpt>
      <trkpt lat="43.40831" lon="5.45372">
        <ele>532.2270508</ele>
        <time>2012-05-18T07:38:29Z</time>
      </trkpt>
      <trkpt lat="43.40836" lon="5.45371">
        <ele>530.7851562</ele>
        <time>2012-05-18T07:38:31Z</time>
      </trkpt>
      <trkpt lat="43.40842" lon="5.45352">
        <ele>524.536499</ele>
        <time>2012-05-18T07:38:36Z</time>
      </trkpt>
      <trkpt lat="43.4084" lon="5.45326">
        <ele>521.6525879</ele>
        <time>2012-05-18T07:38:39Z</time>
      </trkpt>
      <trkpt lat="43.40847" lon="5.45301">
        <ele>517.807251</ele>
        <time>2012-05-18T07:38:42Z</time>
      </trkpt>
      <trkpt lat="43.40846" lon="5.45266">
        <ele>513.9620361</ele>
        <time>2012-05-18T07:38:46Z</time>
      </trkpt>
      <trkpt lat="43.40827" lon="5.45233">
        <ele>505.3101807</ele>
        <time>2012-05-18T07:38:52Z</time>
      </trkpt>
      <trkpt lat="43.40826" lon="5.4521">
        <ele>501.4648438</ele>
        <time>2012-05-18T07:38:56Z</time>
      </trkpt>
      <trkpt lat="43.40824" lon="5.45188">
        <ele>499.0615234</ele>
        <time>2012-05-18T07:38:59Z</time>
      </trkpt>
      <trkpt lat="43.40808" lon="5.45171">
        <ele>497.138916</ele>
        <time>2012-05-18T07:39:02Z</time>
      </trkpt>
      <trkpt lat="43.40812" lon="5.45111">
        <ele>493.2935791</ele>
        <time>2012-05-18T07:39:10Z</time>
      </trkpt>
      <trkpt lat="43.40815" lon="5.45107">
        <ele>490.8903809</ele>
        <time>2012-05-18T07:39:17Z</time>
      </trkpt>
      <trkpt lat="43.40815" lon="5.45106">
        <ele>489.4483643</ele>
        <time>2012-05-18T07:39:56Z</time>
      </trkpt>
      <trkpt lat="43.40818" lon="5.45101">
        <ele>488.4871826</ele>
        <time>2012-05-18T07:39:59Z</time>
      </trkpt>
      <trkpt lat="43.40822" lon="5.45089">
        <ele>487.5256348</ele>
        <time>2012-05-18T07:40:02Z</time>
      </trkpt>
      <trkpt lat="43.40832" lon="5.45071">
        <ele>485.1224365</ele>
        <time>2012-05-18T07:40:06Z</time>
      </trkpt>
      <trkpt lat="43.40845" lon="5.45048">
        <ele>483.6804199</ele>
        <time>2012-05-18T07:40:09Z</time>
      </trkpt>
      <trkpt lat="43.40858" lon="5.45034">
        <ele>481.7578125</ele>
        <time>2012-05-18T07:40:12Z</time>
      </trkpt>
      <trkpt lat="43.40872" lon="5.45021">
        <ele>478.8739014</ele>
        <time>2012-05-18T07:40:15Z</time>
      </trkpt>
      <trkpt lat="43.4089" lon="5.45005">
        <ele>471.1833496</ele>
        <time>2012-05-18T07:40:25Z</time>
      </trkpt>
      <trkpt lat="43.40889" lon="5.45004">
        <ele>471.1833496</ele>
        <time>2012-05-18T07:40:32Z</time>
      </trkpt>
      <trkpt lat="43.40888" lon="5.44993">
        <ele>471.1833496</ele>
        <time>2012-05-18T07:40:35Z</time>
      </trkpt>
      <trkpt lat="43.40891" lon="5.44976">
        <ele>470.7026367</ele>
        <time>2012-05-18T07:40:39Z</time>
      </trkpt>
      <trkpt lat="43.40913" lon="5.44918">
        <ele>467.8187256</ele>
        <time>2012-05-18T07:40:52Z</time>
      </trkpt>
      <trkpt lat="43.40918" lon="5.44916">
        <ele>465.4155273</ele>
        <time>2012-05-18T07:41:08Z</time>
      </trkpt>
      <trkpt lat="43.40917" lon="5.44926">
        <ele>464.4541016</ele>
        <time>2012-05-18T07:41:21Z</time>
      </trkpt>
      <trkpt lat="43.4092" lon="5.44951">
        <ele>461.5701904</ele>
        <time>2012-05-18T07:41:41Z</time>
      </trkpt>
      <trkpt lat="43.40938" lon="5.44986">
        <ele>459.1668701</ele>
        <time>2012-05-18T07:41:46Z</time>
      </trkpt>
      <trkpt lat="43.40954" lon="5.45022">
        <ele>453.3989258</ele>
        <time>2012-05-18T07:41:51Z</time>
      </trkpt>
      <trkpt lat="43.40954" lon="5.45065">
        <ele>447.1502686</ele>
        <time>2012-05-18T07:41:57Z</time>
      </trkpt>
      <trkpt lat="43.40962" lon="5.4509">
        <ele>442.3438721</ele>
        <time>2012-05-18T07:42:01Z</time>
      </trkpt>
      <trkpt lat="43.40978" lon="5.45104">
        <ele>433.6918945</ele>
        <time>2012-05-18T07:42:07Z</time>
      </trkpt>
      <trkpt lat="43.40988" lon="5.45117">
        <ele>429.8465576</ele>
        <time>2012-05-18T07:42:11Z</time>
      </trkpt>
      <trkpt lat="43.40996" lon="5.45108">
        <ele>423.1174316</ele>
        <time>2012-05-18T07:42:16Z</time>
      </trkpt>
      <trkpt lat="43.41004" lon="5.4509">
        <ele>417.8302002</ele>
        <time>2012-05-18T07:42:20Z</time>
      </trkpt>
      <trkpt lat="43.41005" lon="5.45087">
        <ele>408.217041</ele>
        <time>2012-05-18T07:42:31Z</time>
      </trkpt>
      <trkpt lat="43.41004" lon="5.45087">
        <ele>405.8137207</ele>
        <time>2012-05-18T07:42:37Z</time>
      </trkpt>
      <trkpt lat="43.41005" lon="5.45074">
        <ele>404.8522949</ele>
        <time>2012-05-18T07:42:41Z</time>
      </trkpt>
      <trkpt lat="43.41009" lon="5.45039">
        <ele>403.4104004</ele>
        <time>2012-05-18T07:42:49Z</time>
      </trkpt>
      <trkpt lat="43.41019" lon="5.45017">
        <ele>402.9296875</ele>
        <time>2012-05-18T07:42:58Z</time>
      </trkpt>
      <trkpt lat="43.41025" lon="5.45006">
        <ele>402.4490967</ele>
        <time>2012-05-18T07:43:00Z</time>
      </trkpt>
      <trkpt lat="43.41033" lon="5.44991">
        <ele>401.9685059</ele>
        <time>2012-05-18T07:43:02Z</time>
      </trkpt>
      <trkpt lat="43.41067" lon="5.44978">
        <ele>401.0070801</ele>
        <time>2012-05-18T07:43:06Z</time>
      </trkpt>
      <trkpt lat="43.41102" lon="5.44985">
        <ele>398.1231689</ele>
        <time>2012-05-18T07:43:13Z</time>
      </trkpt>
      <trkpt lat="43.41108" lon="5.44988">
        <ele>397.1617432</ele>
        <time>2012-05-18T07:43:21Z</time>
      </trkpt>
      <trkpt lat="43.41138" lon="5.44982">
        <ele>387.548584</ele>
        <time>2012-05-18T07:43:32Z</time>
      </trkpt>
      <trkpt lat="43.41156" lon="5.44987">
        <ele>387.0679932</ele>
        <time>2012-05-18T07:43:35Z</time>
      </trkpt>
      <trkpt lat="43.41169" lon="5.44986">
        <ele>384.184082</ele>
        <time>2012-05-18T07:43:40Z</time>
      </trkpt>
      <trkpt lat="43.41188" lon="5.44979">
        <ele>381.3000488</ele>
        <time>2012-05-18T07:43:46Z</time>
      </trkpt>
      <trkpt lat="43.41204" lon="5.44967">
        <ele>376.4935303</ele>
        <time>2012-05-18T07:43:54Z</time>
      </trkpt>
      <trkpt lat="43.41205" lon="5.44969">
        <ele>376.0128174</ele>
        <time>2012-05-18T07:44:27Z</time>
      </trkpt>
      <trkpt lat="43.41202" lon="5.45001">
        <ele>372.6481934</ele>
        <time>2012-05-18T07:44:34Z</time>
      </trkpt>
      <trkpt lat="43.41203" lon="5.4504">
        <ele>367.3609619</ele>
        <time>2012-05-18T07:44:45Z</time>
      </trkpt>
      <trkpt lat="43.41206" lon="5.45058">
        <ele>370.244873</ele>
        <time>2012-05-18T07:44:52Z</time>
      </trkpt>
      <trkpt lat="43.4121" lon="5.45052">
        <ele>369.7642822</ele>
        <time>2012-05-18T07:44:56Z</time>
      </trkpt>
      <trkpt lat="43.41208" lon="5.45035">
        <ele>368.3222656</ele>
        <time>2012-05-18T07:45:00Z</time>
      </trkpt>
      <trkpt lat="43.41206" lon="5.45006">
        <ele>366.3995361</ele>
        <time>2012-05-18T07:45:09Z</time>
      </trkpt>
      <trkpt lat="43.41202" lon="5.44997">
        <ele>364.4769287</ele>
        <time>2012-05-18T07:45:26Z</time>
      </trkpt>
      <trkpt lat="43.412" lon="5.44991">
        <ele>363.9963379</ele>
        <time>2012-05-18T07:45:29Z</time>
      </trkpt>
      <trkpt lat="43.41211" lon="5.44959">
        <ele>363.0350342</ele>
        <time>2012-05-18T07:45:37Z</time>
      </trkpt>
      <trkpt lat="43.4123" lon="5.44921">
        <ele>361.5931396</ele>
        <time>2012-05-18T07:45:48Z</time>
      </trkpt>
      <trkpt lat="43.41242" lon="5.44893">
        <ele>363.0350342</ele>
        <time>2012-05-18T07:45:57Z</time>
      </trkpt>
      <trkpt lat="43.41248" lon="5.44868">
        <ele>362.5543213</ele>
        <time>2012-05-18T07:46:03Z</time>
      </trkpt>
      <trkpt lat="43.41249" lon="5.44819">
        <ele>363.9963379</ele>
        <time>2012-05-18T07:46:14Z</time>
      </trkpt>
      <trkpt lat="43.41257" lon="5.44754">
        <ele>366.3995361</ele>
        <time>2012-05-18T07:46:25Z</time>
      </trkpt>
      <trkpt lat="43.41258" lon="5.44738">
        <ele>364.4769287</ele>
        <time>2012-05-18T07:46:27Z</time>
      </trkpt>
      <trkpt lat="43.41258" lon="5.44724">
        <ele>363.5157471</ele>
        <time>2012-05-18T07:46:29Z</time>
      </trkpt>
      <trkpt lat="43.41256" lon="5.44695">
        <ele>363.0350342</ele>
        <time>2012-05-18T07:46:32Z</time>
      </trkpt>
      <trkpt lat="43.4126" lon="5.44652">
        <ele>362.5543213</ele>
        <time>2012-05-18T07:46:36Z</time>
      </trkpt>
      <trkpt lat="43.41262" lon="5.44611">
        <ele>360.6317139</ele>
        <time>2012-05-18T07:46:44Z</time>
      </trkpt>
      <trkpt lat="43.41261" lon="5.44606">
        <ele>360.151123</ele>
        <time>2012-05-18T07:46:46Z</time>
      </trkpt>
      <trkpt lat="43.41269" lon="5.44599">
        <ele>358.7089844</ele>
        <time>2012-05-18T07:46:51Z</time>
      </trkpt>
      <trkpt lat="43.41279" lon="5.44599">
        <ele>358.7089844</ele>
        <time>2012-05-18T07:46:53Z</time>
      </trkpt>
      <trkpt lat="43.413" lon="5.44594">
        <ele>359.6704102</ele>
        <time>2012-05-18T07:46:56Z</time>
      </trkpt>
      <trkpt lat="43.4135" lon="5.44596">
        <ele>349.5765381</ele>
        <time>2012-05-18T07:47:07Z</time>
      </trkpt>
      <trkpt lat="43.4135" lon="5.44597">
        <ele>348.1346436</ele>
        <time>2012-05-18T07:47:09Z</time>
      </trkpt>
      <trkpt lat="43.41373" lon="5.44613">
        <ele>344.2894287</ele>
        <time>2012-05-18T07:47:15Z</time>
      </trkpt>
      <trkpt lat="43.41403" lon="5.44632">
        <ele>340.4440918</ele>
        <time>2012-05-18T07:47:21Z</time>
      </trkpt>
      <trkpt lat="43.41431" lon="5.44642">
        <ele>338.0407715</ele>
        <time>2012-05-18T07:47:25Z</time>
      </trkpt>
      <trkpt lat="43.41447" lon="5.44641">
        <ele>337.0794678</ele>
        <time>2012-05-18T07:47:28Z</time>
      </trkpt>
      <trkpt lat="43.4146" lon="5.44642">
        <ele>336.1181641</ele>
        <time>2012-05-18T07:47:30Z</time>
      </trkpt>
      <trkpt lat="43.41515" lon="5.44668">
        <ele>329.388916</ele>
        <time>2012-05-18T07:47:40Z</time>
      </trkpt>
      <trkpt lat="43.41601" lon="5.4469">
        <ele>326.0241699</ele>
        <time>2012-05-18T07:47:52Z</time>
      </trkpt>
      <trkpt lat="43.41624" lon="5.44693">
        <ele>326.0241699</ele>
        <time>2012-05-18T07:48:00Z</time>
      </trkpt>
      <trkpt lat="43.41624" lon="5.44692">
        <ele>326.9855957</ele>
        <time>2012-05-18T07:48:41Z</time>
      </trkpt>
      <trkpt lat="43.41627" lon="5.44686">
        <ele>328.4276123</ele>
        <time>2012-05-18T07:48:45Z</time>
      </trkpt>
      <trkpt lat="43.41615" lon="5.44639">
        <ele>332.2728271</ele>
        <time>2012-05-18T07:49:00Z</time>
      </trkpt>
      <trkpt lat="43.41614" lon="5.44635">
        <ele>332.2728271</ele>
        <time>2012-05-18T07:49:01Z</time>
      </trkpt>
      <trkpt lat="43.41614" lon="5.44573">
        <ele>334.6761475</ele>
        <time>2012-05-18T07:49:15Z</time>
      </trkpt>
      <trkpt lat="43.41604" lon="5.4452">
        <ele>336.1181641</ele>
        <time>2012-05-18T07:49:31Z</time>
      </trkpt>
      <trkpt lat="43.41597" lon="5.44504">
        <ele>337.0794678</ele>
        <time>2012-05-18T07:49:46Z</time>
      </trkpt>
      <trkpt lat="43.416" lon="5.44499">
        <ele>337.5600586</ele>
        <time>2012-05-18T07:50:31Z</time>
      </trkpt>
      <trkpt lat="43.41614" lon="5.44498">
        <ele>339.0020752</ele>
        <time>2012-05-18T07:50:45Z</time>
      </trkpt>
      <trkpt lat="43.41607" lon="5.44499">
        <ele>339.9633789</ele>
        <time>2012-05-18T07:50:49Z</time>
      </trkpt>
      <trkpt lat="43.41592" lon="5.44492">
        <ele>339.482666</ele>
        <time>2012-05-18T07:50:57Z</time>
      </trkpt>
      <trkpt lat="43.41584" lon="5.44478">
        <ele>339.0020752</ele>
        <time>2012-05-18T07:51:02Z</time>
      </trkpt>
      <trkpt lat="43.41592" lon="5.44468">
        <ele>339.482666</ele>
        <time>2012-05-18T07:51:07Z</time>
      </trkpt>
      <trkpt lat="43.41624" lon="5.44453">
        <ele>339.482666</ele>
        <time>2012-05-18T07:51:19Z</time>
      </trkpt>
      <trkpt lat="43.41631" lon="5.44443">
        <ele>339.9633789</ele>
        <time>2012-05-18T07:51:23Z</time>
      </trkpt>
      <trkpt lat="43.41641" lon="5.4442">
        <ele>339.482666</ele>
        <time>2012-05-18T07:51:29Z</time>
      </trkpt>
      <trkpt lat="43.41669" lon="5.44403">
        <ele>337.0794678</ele>
        <time>2012-05-18T07:51:39Z</time>
      </trkpt>
      <trkpt lat="43.41682" lon="5.44376">
        <ele>336.1181641</ele>
        <time>2012-05-18T07:51:47Z</time>
      </trkpt>
      <trkpt lat="43.41676" lon="5.44323">
        <ele>334.6761475</ele>
        <time>2012-05-18T07:51:59Z</time>
      </trkpt>
      <trkpt lat="43.41676" lon="5.4432">
        <ele>334.1954346</ele>
        <time>2012-05-18T07:52:00Z</time>
      </trkpt>
      <trkpt lat="43.41683" lon="5.44315">
        <ele>338.0407715</ele>
        <time>2012-05-18T07:52:04Z</time>
      </trkpt>
      <trkpt lat="43.41703" lon="5.44318">
        <ele>345.2506104</ele>
        <time>2012-05-18T07:52:17Z</time>
      </trkpt>
      <trkpt lat="43.41722" lon="5.44329">
        <ele>351.9798584</ele>
        <time>2012-05-18T07:52:29Z</time>
      </trkpt>
      <trkpt lat="43.41725" lon="5.44333">
        <ele>353.9025879</ele>
        <time>2012-05-18T07:52:33Z</time>
      </trkpt>
      <trkpt lat="43.41732" lon="5.44343">
        <ele>355.8251953</ele>
        <time>2012-05-18T07:52:45Z</time>
      </trkpt>
      <trkpt lat="43.41732" lon="5.44342">
        <ele>356.3057861</ele>
        <time>2012-05-18T07:52:48Z</time>
      </trkpt>
      <trkpt lat="43.4173" lon="5.44329">
        <ele>357.7478027</ele>
        <time>2012-05-18T07:52:55Z</time>
      </trkpt>
      <trkpt lat="43.41756" lon="5.4431">
        <ele>353.421875</ele>
        <time>2012-05-18T07:53:09Z</time>
      </trkpt>
      <trkpt lat="43.41788" lon="5.44295">
        <ele>349.0958252</ele>
        <time>2012-05-18T07:53:19Z</time>
      </trkpt>
      <trkpt lat="43.41795" lon="5.44292">
        <ele>348.6152344</ele>
        <time>2012-05-18T07:53:21Z</time>
      </trkpt>
      <trkpt lat="43.418" lon="5.44285">
        <ele>349.5765381</ele>
        <time>2012-05-18T07:53:30Z</time>
      </trkpt>
      <trkpt lat="43.418" lon="5.44282">
        <ele>349.5765381</ele>
        <time>2012-05-18T07:53:34Z</time>
      </trkpt>
      <trkpt lat="43.41803" lon="5.44265">
        <ele>350.057251</ele>
        <time>2012-05-18T07:53:48Z</time>
      </trkpt>
      <trkpt lat="43.41803" lon="5.44257">
        <ele>352.9411621</ele>
        <time>2012-05-18T07:53:57Z</time>
      </trkpt>
      <trkpt lat="43.41804" lon="5.44252">
        <ele>355.3444824</ele>
        <time>2012-05-18T07:54:11Z</time>
      </trkpt>
      <trkpt lat="43.41802" lon="5.44252">
        <ele>355.3444824</ele>
        <time>2012-05-18T07:54:28Z</time>
      </trkpt>
      <trkpt lat="43.41802" lon="5.44252">
        <ele>355.8251953</ele>
        <time>2012-05-18T07:54:42Z</time>
      </trkpt>
      <trkpt lat="43.41805" lon="5.44248">
        <ele>357.7478027</ele>
        <time>2012-05-18T07:54:55Z</time>
      </trkpt>
      <trkpt lat="43.41811" lon="5.4424">
        <ele>360.151123</ele>
        <time>2012-05-18T07:55:10Z</time>
      </trkpt>
      <trkpt lat="43.41822" lon="5.44222">
        <ele>363.5157471</ele>
        <time>2012-05-18T07:55:24Z</time>
      </trkpt>
      <trkpt lat="43.41823" lon="5.44219">
        <ele>363.5157471</ele>
        <time>2012-05-18T07:55:26Z</time>
      </trkpt>
      <trkpt lat="43.41829" lon="5.44197">
        <ele>362.5543213</ele>
        <time>2012-05-18T07:55:39Z</time>
      </trkpt>
      <trkpt lat="43.41831" lon="5.44193">
        <ele>362.5543213</ele>
        <time>2012-05-18T07:55:43Z</time>
      </trkpt>
      <trkpt lat="43.41843" lon="5.4418">
        <ele>364.9576416</ele>
        <time>2012-05-18T07:55:54Z</time>
      </trkpt>
      <trkpt lat="43.41848" lon="5.44176">
        <ele>366.3995361</ele>
        <time>2012-05-18T07:55:59Z</time>
      </trkpt>
      <trkpt lat="43.41853" lon="5.44168">
        <ele>368.8029785</ele>
        <time>2012-05-18T07:56:10Z</time>
      </trkpt>
      <trkpt lat="43.41856" lon="5.44167">
        <ele>370.244873</ele>
        <time>2012-05-18T07:56:14Z</time>
      </trkpt>
      <trkpt lat="43.4186" lon="5.44164">
        <ele>370.244873</ele>
        <time>2012-05-18T07:56:17Z</time>
      </trkpt>
      <trkpt lat="43.41867" lon="5.44162">
        <ele>372.6481934</ele>
        <time>2012-05-18T07:56:35Z</time>
      </trkpt>
      <trkpt lat="43.41871" lon="5.44153">
        <ele>373.6094971</ele>
        <time>2012-05-18T07:56:49Z</time>
      </trkpt>
      <trkpt lat="43.41876" lon="5.44148">
        <ele>373.1289062</ele>
        <time>2012-05-18T07:57:13Z</time>
      </trkpt>
      <trkpt lat="43.41878" lon="5.44142">
        <ele>373.6094971</ele>
        <time>2012-05-18T07:57:15Z</time>
      </trkpt>
      <trkpt lat="43.41885" lon="5.44106">
        <ele>373.6094971</ele>
        <time>2012-05-18T07:57:24Z</time>
      </trkpt>
      <trkpt lat="43.41888" lon="5.44096">
        <ele>372.6481934</ele>
        <time>2012-05-18T07:57:26Z</time>
      </trkpt>
      <trkpt lat="43.41889" lon="5.44084">
        <ele>372.6481934</ele>
        <time>2012-05-18T07:57:29Z</time>
      </trkpt>
      <trkpt lat="43.41913" lon="5.44043">
        <ele>374.0900879</ele>
        <time>2012-05-18T07:57:41Z</time>
      </trkpt>
      <trkpt lat="43.41921" lon="5.44028">
        <ele>374.5708008</ele>
        <time>2012-05-18T07:57:45Z</time>
      </trkpt>
      <trkpt lat="43.41926" lon="5.43998">
        <ele>373.6094971</ele>
        <time>2012-05-18T07:57:51Z</time>
      </trkpt>
      <trkpt lat="43.41941" lon="5.43966">
        <ele>373.6094971</ele>
        <time>2012-05-18T07:57:58Z</time>
      </trkpt>
      <trkpt lat="43.41974" lon="5.43957">
        <ele>372.1674805</ele>
        <time>2012-05-18T07:58:07Z</time>
      </trkpt>
      <trkpt lat="43.42009" lon="5.43953">
        <ele>367.8415527</ele>
        <time>2012-05-18T07:58:12Z</time>
      </trkpt>
      <trkpt lat="43.42036" lon="5.43955">
        <ele>364.4769287</ele>
        <time>2012-05-18T07:58:15Z</time>
      </trkpt>
      <trkpt lat="43.42095" lon="5.43943">
        <ele>356.3057861</ele>
        <time>2012-05-18T07:58:21Z</time>
      </trkpt>
      <trkpt lat="43.42133" lon="5.43936">
        <ele>355.8251953</ele>
        <time>2012-05-18T07:58:25Z</time>
      </trkpt>
      <trkpt lat="43.42202" lon="5.43902">
        <ele>351.9798584</ele>
        <time>2012-05-18T07:58:34Z</time>
      </trkpt>
      <trkpt lat="43.42227" lon="5.43892">
        <ele>352.9411621</ele>
        <time>2012-05-18T07:58:38Z</time>
      </trkpt>
      <trkpt lat="43.42265" lon="5.43874">
        <ele>351.4991455</ele>
        <time>2012-05-18T07:58:44Z</time>
      </trkpt>
      <trkpt lat="43.42274" lon="5.43865">
        <ele>350.5378418</ele>
        <time>2012-05-18T07:58:46Z</time>
      </trkpt>
      <trkpt lat="43.4231" lon="5.43811">
        <ele>350.5378418</ele>
        <time>2012-05-18T07:58:58Z</time>
      </trkpt>
      <trkpt lat="43.42333" lon="5.43777">
        <ele>350.057251</ele>
        <time>2012-05-18T07:59:10Z</time>
      </trkpt>
      <trkpt lat="43.42332" lon="5.4377">
        <ele>350.057251</ele>
        <time>2012-05-18T07:59:12Z</time>
      </trkpt>
      <trkpt lat="43.42333" lon="5.43767">
        <ele>350.5378418</ele>
        <time>2012-05-18T07:59:31Z</time>
      </trkpt>
      <trkpt lat="43.42335" lon="5.43766">
        <ele>351.0184326</ele>
        <time>2012-05-18T07:59:39Z</time>
      </trkpt>
      <trkpt lat="43.42342" lon="5.43712">
        <ele>348.6152344</ele>
        <time>2012-05-18T07:59:51Z</time>
      </trkpt>
      <trkpt lat="43.4236" lon="5.43623">
        <ele>343.8085938</ele>
        <time>2012-05-18T08:00:02Z</time>
      </trkpt>
      <trkpt lat="43.42373" lon="5.43546">
        <ele>339.482666</ele>
        <time>2012-05-18T08:00:12Z</time>
      </trkpt>
      <trkpt lat="43.42376" lon="5.43521">
        <ele>338.5214844</ele>
        <time>2012-05-18T08:00:17Z</time>
      </trkpt>
      <trkpt lat="43.4238" lon="5.43504">
        <ele>337.0794678</ele>
        <time>2012-05-18T08:00:20Z</time>
      </trkpt>
      <trkpt lat="43.42388" lon="5.4349">
        <ele>336.1181641</ele>
        <time>2012-05-18T08:00:23Z</time>
      </trkpt>
      <trkpt lat="43.42401" lon="5.43439">
        <ele>336.598877</ele>
        <time>2012-05-18T08:00:34Z</time>
      </trkpt>
      <trkpt lat="43.42407" lon="5.43389">
        <ele>336.1181641</ele>
        <time>2012-05-18T08:00:44Z</time>
      </trkpt>
      <trkpt lat="43.42402" lon="5.4338">
        <ele>334.6761475</ele>
        <time>2012-05-18T08:00:54Z</time>
      </trkpt>
      <trkpt lat="43.42402" lon="5.4338">
        <ele>334.1954346</ele>
        <time>2012-05-18T08:00:55Z</time>
      </trkpt>
      <trkpt lat="43.42413" lon="5.43401">
        <ele>334.6761475</ele>
        <time>2012-05-18T08:01:12Z</time>
      </trkpt>
      <trkpt lat="43.42422" lon="5.43372">
        <ele>334.6761475</ele>
        <time>2012-05-18T08:01:23Z</time>
      </trkpt>
      <trkpt lat="43.42423" lon="5.43362">
        <ele>332.75354</ele>
        <time>2012-05-18T08:01:25Z</time>
      </trkpt>
      <trkpt lat="43.42439" lon="5.43316">
        <ele>330.3502197</ele>
        <time>2012-05-18T08:01:33Z</time>
      </trkpt>
      <trkpt lat="43.42468" lon="5.43264">
        <ele>333.2341309</ele>
        <time>2012-05-18T08:01:45Z</time>
      </trkpt>
      <trkpt lat="43.42466" lon="5.43242">
        <ele>333.2341309</ele>
        <time>2012-05-18T08:01:49Z</time>
      </trkpt>
      <trkpt lat="43.42463" lon="5.43211">
        <ele>332.2728271</ele>
        <time>2012-05-18T08:01:54Z</time>
      </trkpt>
      <trkpt lat="43.42457" lon="5.43166">
        <ele>328.9083252</ele>
        <time>2012-05-18T08:02:02Z</time>
      </trkpt>
      <trkpt lat="43.42459" lon="5.43152">
        <ele>326.0241699</ele>
        <time>2012-05-18T08:02:07Z</time>
      </trkpt>
      <trkpt lat="43.42454" lon="5.43136">
        <ele>325.5435791</ele>
        <time>2012-05-18T08:02:10Z</time>
      </trkpt>
      <trkpt lat="43.42452" lon="5.43101">
        <ele>324.1015625</ele>
        <time>2012-05-18T08:02:15Z</time>
      </trkpt>
      <trkpt lat="43.42456" lon="5.43059">
        <ele>322.659668</ele>
        <time>2012-05-18T08:02:22Z</time>
      </trkpt>
      <trkpt lat="43.42453" lon="5.43052">
        <ele>320.7370605</ele>
        <time>2012-05-18T08:02:24Z</time>
      </trkpt>
      <trkpt lat="43.42454" lon="5.43039">
        <ele>319.7756348</ele>
        <time>2012-05-18T08:02:27Z</time>
      </trkpt>
      <trkpt lat="43.42461" lon="5.42996">
        <ele>316.4110107</ele>
        <time>2012-05-18T08:02:37Z</time>
      </trkpt>
      <trkpt lat="43.42469" lon="5.42962">
        <ele>315.9304199</ele>
        <time>2012-05-18T08:02:45Z</time>
      </trkpt>
      <trkpt lat="43.42475" lon="5.42944">
        <ele>317.3724365</ele>
        <time>2012-05-18T08:02:50Z</time>
      </trkpt>
      <trkpt lat="43.42477" lon="5.42935">
        <ele>320.2563477</ele>
        <time>2012-05-18T08:03:05Z</time>
      </trkpt>
      <trkpt lat="43.42477" lon="5.4293">
        <ele>320.2563477</ele>
        <time>2012-05-18T08:03:14Z</time>
      </trkpt>
      <trkpt lat="43.42481" lon="5.4292">
        <ele>317.8530273</ele>
        <time>2012-05-18T08:03:27Z</time>
      </trkpt>
      <trkpt lat="43.42482" lon="5.42919">
        <ele>318.3336182</ele>
        <time>2012-05-18T08:03:40Z</time>
      </trkpt>
      <trkpt lat="43.42484" lon="5.42919">
        <ele>319.2950439</ele>
        <time>2012-05-18T08:03:54Z</time>
      </trkpt>
      <trkpt lat="43.4249" lon="5.42923">
        <ele>317.8530273</ele>
        <time>2012-05-18T08:04:49Z</time>
      </trkpt>
      <trkpt lat="43.42491" lon="5.42923">
        <ele>317.3724365</ele>
        <time>2012-05-18T08:05:05Z</time>
      </trkpt>
      <trkpt lat="43.42492" lon="5.42925">
        <ele>317.3724365</ele>
        <time>2012-05-18T08:05:10Z</time>
      </trkpt>
      <trkpt lat="43.42498" lon="5.42928">
        <ele>314.9691162</ele>
        <time>2012-05-18T08:05:17Z</time>
      </trkpt>
      <trkpt lat="43.42501" lon="5.42933">
        <ele>313.0465088</ele>
        <time>2012-05-18T08:05:30Z</time>
      </trkpt>
      <trkpt lat="43.42501" lon="5.42934">
        <ele>312.5657959</ele>
        <time>2012-05-18T08:05:35Z</time>
      </trkpt>
      <trkpt lat="43.42504" lon="5.42944">
        <ele>311.6044922</ele>
        <time>2012-05-18T08:05:39Z</time>
      </trkpt>
      <trkpt lat="43.42524" lon="5.42926">
        <ele>308.720459</ele>
        <time>2012-05-18T08:05:51Z</time>
      </trkpt>
      <trkpt lat="43.42549" lon="5.4288">
        <ele>305.355957</ele>
        <time>2012-05-18T08:06:00Z</time>
      </trkpt>
      <trkpt lat="43.42562" lon="5.4286">
        <ele>303.9139404</ele>
        <time>2012-05-18T08:06:03Z</time>
      </trkpt>
      <trkpt lat="43.42626" lon="5.42802">
        <ele>299.1072998</ele>
        <time>2012-05-18T08:06:13Z</time>
      </trkpt>
      <trkpt lat="43.42642" lon="5.42785">
        <ele>297.6654053</ele>
        <time>2012-05-18T08:06:15Z</time>
      </trkpt>
      <trkpt lat="43.42653" lon="5.42769">
        <ele>296.7041016</ele>
        <time>2012-05-18T08:06:17Z</time>
      </trkpt>
      <trkpt lat="43.42671" lon="5.42736">
        <ele>294.7813721</ele>
        <time>2012-05-18T08:06:21Z</time>
      </trkpt>
      <trkpt lat="43.42681" lon="5.42735">
        <ele>287.5714111</ele>
        <time>2012-05-18T08:06:29Z</time>
      </trkpt>
      <trkpt lat="43.42681" lon="5.42737">
        <ele>287.0908203</ele>
        <time>2012-05-18T08:06:30Z</time>
      </trkpt>
      <trkpt lat="43.42689" lon="5.42763">
        <ele>282.7650146</ele>
        <time>2012-05-18T08:06:38Z</time>
      </trkpt>
      <trkpt lat="43.4269" lon="5.42794">
        <ele>278.9196777</ele>
        <time>2012-05-18T08:06:44Z</time>
      </trkpt>
      <trkpt lat="43.42699" lon="5.42806">
        <ele>276.9970703</ele>
        <time>2012-05-18T08:06:47Z</time>
      </trkpt>
      <trkpt lat="43.42689" lon="5.42826">
        <ele>275.0744629</ele>
        <time>2012-05-18T08:06:52Z</time>
      </trkpt>
      <trkpt lat="43.42675" lon="5.42842">
        <ele>274.1130371</ele>
        <time>2012-05-18T08:06:55Z</time>
      </trkpt>
      <trkpt lat="43.42646" lon="5.42863">
        <ele>269.7871094</ele>
        <time>2012-05-18T08:07:02Z</time>
      </trkpt>
      <trkpt lat="43.42631" lon="5.42875">
        <ele>268.3450928</ele>
        <time>2012-05-18T08:07:06Z</time>
      </trkpt>
      <trkpt lat="43.42622" lon="5.42889">
        <ele>267.3839111</ele>
        <time>2012-05-18T08:07:08Z</time>
      </trkpt>
      <trkpt lat="43.42618" lon="5.4293">
        <ele>262.5771484</ele>
        <time>2012-05-18T08:07:14Z</time>
      </trkpt>
      <trkpt lat="43.42618" lon="5.42931">
        <ele>258.7319336</ele>
        <time>2012-05-18T08:07:30Z</time>
      </trkpt>
      <trkpt lat="43.42618" lon="5.42928">
        <ele>259.2126465</ele>
        <time>2012-05-18T08:08:05Z</time>
      </trkpt>
      <trkpt lat="43.42619" lon="5.42928">
        <ele>258.7319336</ele>
        <time>2012-05-18T08:08:06Z</time>
      </trkpt>
      <trkpt lat="43.42645" lon="5.42899">
        <ele>257.2900391</ele>
        <time>2012-05-18T08:08:20Z</time>
      </trkpt>
      <trkpt lat="43.42672" lon="5.42872">
        <ele>255.3673096</ele>
        <time>2012-05-18T08:08:31Z</time>
      </trkpt>
      <trkpt lat="43.42706" lon="5.42843">
        <ele>253.925415</ele>
        <time>2012-05-18T08:08:43Z</time>
      </trkpt>
      <trkpt lat="43.42711" lon="5.42835">
        <ele>254.4060059</ele>
        <time>2012-05-18T08:08:46Z</time>
      </trkpt>
      <trkpt lat="43.42715" lon="5.42829">
        <ele>254.8865967</ele>
        <time>2012-05-18T08:08:49Z</time>
      </trkpt>
      <trkpt lat="43.42733" lon="5.4276">
        <ele>256.3287354</ele>
        <time>2012-05-18T08:09:05Z</time>
      </trkpt>
      <trkpt lat="43.42739" lon="5.42737">
        <ele>255.8480225</ele>
        <time>2012-05-18T08:09:12Z</time>
      </trkpt>
      <trkpt lat="43.4274" lon="5.42732">
        <ele>256.8093262</ele>
        <time>2012-05-18T08:09:15Z</time>
      </trkpt>
      <trkpt lat="43.42746" lon="5.42728">
        <ele>257.2900391</ele>
        <time>2012-05-18T08:09:19Z</time>
      </trkpt>
      <trkpt lat="43.42762" lon="5.42726">
        <ele>257.770752</ele>
        <time>2012-05-18T08:09:25Z</time>
      </trkpt>
      <trkpt lat="43.42774" lon="5.42753">
        <ele>257.770752</ele>
        <time>2012-05-18T08:09:29Z</time>
      </trkpt>
      <trkpt lat="43.42791" lon="5.42777">
        <ele>257.2900391</ele>
        <time>2012-05-18T08:09:32Z</time>
      </trkpt>
      <trkpt lat="43.42818" lon="5.42773">
        <ele>256.8093262</ele>
        <time>2012-05-18T08:09:36Z</time>
      </trkpt>
      <trkpt lat="43.42837" lon="5.4276">
        <ele>256.3287354</ele>
        <time>2012-05-18T08:09:39Z</time>
      </trkpt>
      <trkpt lat="43.42853" lon="5.42763">
        <ele>252.4833984</ele>
        <time>2012-05-18T08:09:48Z</time>
      </trkpt>
      <trkpt lat="43.42853" lon="5.42772">
        <ele>250.560791</ele>
        <time>2012-05-18T08:09:59Z</time>
      </trkpt>
      <trkpt lat="43.42852" lon="5.42777">
        <ele>250.560791</ele>
        <time>2012-05-18T08:10:01Z</time>
      </trkpt>
      <trkpt lat="43.42847" lon="5.42799">
        <ele>250.0802002</ele>
        <time>2012-05-18T08:10:05Z</time>
      </trkpt>
      <trkpt lat="43.42845" lon="5.42808">
        <ele>248.6381836</ele>
        <time>2012-05-18T08:10:17Z</time>
      </trkpt>
      <trkpt lat="43.42843" lon="5.4281">
        <ele>248.6381836</ele>
        <time>2012-05-18T08:10:19Z</time>
      </trkpt>
      <trkpt lat="43.42837" lon="5.42856">
        <ele>247.6767578</ele>
        <time>2012-05-18T08:10:29Z</time>
      </trkpt>
      <trkpt lat="43.42839" lon="5.42863">
        <ele>245.7541504</ele>
        <time>2012-05-18T08:10:39Z</time>
      </trkpt>
      <trkpt lat="43.42832" lon="5.42879">
        <ele>244.7928467</ele>
        <time>2012-05-18T08:11:01Z</time>
      </trkpt>
      <trkpt lat="43.4283" lon="5.42885">
        <ele>244.7928467</ele>
        <time>2012-05-18T08:11:03Z</time>
      </trkpt>
      <trkpt lat="43.42828" lon="5.42893">
        <ele>244.3122559</ele>
        <time>2012-05-18T08:11:07Z</time>
      </trkpt>
      <trkpt lat="43.42827" lon="5.42911">
        <ele>243.3508301</ele>
        <time>2012-05-18T08:11:14Z</time>
      </trkpt>
      <trkpt lat="43.42827" lon="5.42937">
        <ele>240.9476318</ele>
        <time>2012-05-18T08:11:26Z</time>
      </trkpt>
      <trkpt lat="43.42827" lon="5.42937">
        <ele>239.5054932</ele>
        <time>2012-05-18T08:11:27Z</time>
      </trkpt>
      <trkpt lat="43.4283" lon="5.42951">
        <ele>238.5443115</ele>
        <time>2012-05-18T08:11:32Z</time>
      </trkpt>
      <trkpt lat="43.42846" lon="5.4301">
        <ele>234.6990967</ele>
        <time>2012-05-18T08:11:46Z</time>
      </trkpt>
      <trkpt lat="43.42845" lon="5.43022">
        <ele>234.2183838</ele>
        <time>2012-05-18T08:11:48Z</time>
      </trkpt>
      <trkpt lat="43.4284" lon="5.43071">
        <ele>232.7764893</ele>
        <time>2012-05-18T08:11:59Z</time>
      </trkpt>
      <trkpt lat="43.42832" lon="5.43123">
        <ele>232.7764893</ele>
        <time>2012-05-18T08:12:09Z</time>
      </trkpt>
      <trkpt lat="43.42822" lon="5.4317">
        <ele>232.7764893</ele>
        <time>2012-05-18T08:12:20Z</time>
      </trkpt>
      <trkpt lat="43.42828" lon="5.43171">
        <ele>233.7376709</ele>
        <time>2012-05-18T08:12:24Z</time>
      </trkpt>
      <trkpt lat="43.42844" lon="5.43164">
        <ele>235.6602783</ele>
        <time>2012-05-18T08:12:34Z</time>
      </trkpt>
      <trkpt lat="43.42852" lon="5.43169">
        <ele>235.6602783</ele>
        <time>2012-05-18T08:12:38Z</time>
      </trkpt>
      <trkpt lat="43.42856" lon="5.43177">
        <ele>236.1409912</ele>
        <time>2012-05-18T08:12:41Z</time>
      </trkpt>
      <trkpt lat="43.42863" lon="5.43186">
        <ele>236.6217041</ele>
        <time>2012-05-18T08:12:45Z</time>
      </trkpt>
      <trkpt lat="43.42879" lon="5.43232">
        <ele>238.0635986</ele>
        <time>2012-05-18T08:12:59Z</time>
      </trkpt>
      <trkpt lat="43.42895" lon="5.43273">
        <ele>237.5828857</ele>
        <time>2012-05-18T08:13:12Z</time>
      </trkpt>
      <trkpt lat="43.42897" lon="5.43292">
        <ele>236.6217041</ele>
        <time>2012-05-18T08:13:17Z</time>
      </trkpt>
      <trkpt lat="43.4288" lon="5.43341">
        <ele>238.0635986</ele>
        <time>2012-05-18T08:13:28Z</time>
      </trkpt>
      <trkpt lat="43.42878" lon="5.43387">
        <ele>239.0249023</ele>
        <time>2012-05-18T08:13:41Z</time>
      </trkpt>
      <trkpt lat="43.4289" lon="5.43444">
        <ele>238.5443115</ele>
        <time>2012-05-18T08:13:49Z</time>
      </trkpt>
      <trkpt lat="43.42899" lon="5.43469">
        <ele>238.0635986</ele>
        <time>2012-05-18T08:13:54Z</time>
      </trkpt>
      <trkpt lat="43.42898" lon="5.43486">
        <ele>237.5828857</ele>
        <time>2012-05-18T08:13:58Z</time>
      </trkpt>
      <trkpt lat="43.42898" lon="5.43496">
        <ele>237.1022949</ele>
        <time>2012-05-18T08:14:00Z</time>
      </trkpt>
      <trkpt lat="43.42901" lon="5.43571">
        <ele>236.6217041</ele>
        <time>2012-05-18T08:14:12Z</time>
      </trkpt>
      <trkpt lat="43.42905" lon="5.43628">
        <ele>233.7376709</ele>
        <time>2012-05-18T08:14:23Z</time>
      </trkpt>
      <trkpt lat="43.42906" lon="5.43635">
        <ele>233.2570801</ele>
        <time>2012-05-18T08:14:25Z</time>
      </trkpt>
      <trkpt lat="43.42912" lon="5.43645">
        <ele>230.8537598</ele>
        <time>2012-05-18T08:14:35Z</time>
      </trkpt>
      <trkpt lat="43.4293" lon="5.43639">
        <ele>227.0085449</ele>
        <time>2012-05-18T08:14:42Z</time>
      </trkpt>
      <trkpt lat="43.4295" lon="5.43624">
        <ele>225.5665283</ele>
        <time>2012-05-18T08:14:47Z</time>
      </trkpt>
      <trkpt lat="43.42976" lon="5.43638">
        <ele>222.6824951</ele>
        <time>2012-05-18T08:14:58Z</time>
      </trkpt>
      <trkpt lat="43.42975" lon="5.43631">
        <ele>221.7211914</ele>
        <time>2012-05-18T08:15:15Z</time>
      </trkpt>
      <trkpt lat="43.42975" lon="5.43628">
        <ele>222.6824951</ele>
        <time>2012-05-18T08:15:33Z</time>
      </trkpt>
      <trkpt lat="43.42978" lon="5.43636">
        <ele>225.5665283</ele>
        <time>2012-05-18T08:15:42Z</time>
      </trkpt>
    </trkseg>
  </trk>
</gpx>